<?xml version="1.0" encoding="UTF-8" standalone="no" ?>
<gpx xmlns="http://www.topografix.com/GPX/1/1" xmlns:xsi="http://www.w3.org/2001/XMLSchema-instance" xsi:schemaLocation="http://www.topografix.com/GPX/1/1 http://www.topografix.com/GPX/1/1/gpx.xsd" version="1.1" creator="VisuGPX - https://www.visugpx.com">
  <metadata>
    <name>VTT autour de la Mourachonne</name>
    <desc><![CDATA[Ride after taf !]]></desc>
  </metadata>
  <trk>
    <name><![CDATA[Balade]]></name>
    <cmt><![CDATA[Balade after taf et avant vacances pour tester la Magic Shine. Bien sympathique malgré la boue...]]></cmt>
    <trkseg>
      <trkpt lat="43.60177" lon="6.95103">
        <ele>140.48840332031</ele>
        <time>2012-12-28T16:21:31Z</time>
      </trkpt>
      <trkpt lat="43.6017" lon="6.95091">
        <ele>140.22761535644</ele>
        <time>2012-12-28T16:21:33Z</time>
      </trkpt>
      <trkpt lat="43.60165" lon="6.9508">
        <ele>140.12364196777</ele>
        <time>2012-12-28T16:21:35Z</time>
      </trkpt>
      <trkpt lat="43.60153" lon="6.9506">
        <ele>140.82745361328</ele>
        <time>2012-12-28T16:21:38Z</time>
      </trkpt>
      <trkpt lat="43.60126" lon="6.95019">
        <ele>141</ele>
        <time>2012-12-28T16:21:45Z</time>
      </trkpt>
      <trkpt lat="43.60088" lon="6.94962">
        <ele>141</ele>
        <time>2012-12-28T16:21:54Z</time>
      </trkpt>
      <trkpt lat="43.60083" lon="6.94956">
        <ele>141</ele>
        <time>2012-12-28T16:21:55Z</time>
      </trkpt>
      <trkpt lat="43.60045" lon="6.94898">
        <ele>139.20245361328</ele>
        <time>2012-12-28T16:22:04Z</time>
      </trkpt>
      <trkpt lat="43.60041" lon="6.94891">
        <ele>139.04029846191</ele>
        <time>2012-12-28T16:22:05Z</time>
      </trkpt>
      <trkpt lat="43.60035" lon="6.94878">
        <ele>139</ele>
        <time>2012-12-28T16:22:07Z</time>
      </trkpt>
      <trkpt lat="43.6003" lon="6.94863">
        <ele>139</ele>
        <time>2012-12-28T16:22:09Z</time>
      </trkpt>
      <trkpt lat="43.60023" lon="6.9484">
        <ele>138.39065551758</ele>
        <time>2012-12-28T16:22:12Z</time>
      </trkpt>
      <trkpt lat="43.6002" lon="6.94834">
        <ele>138.30822753906</ele>
        <time>2012-12-28T16:22:13Z</time>
      </trkpt>
      <trkpt lat="43.60011" lon="6.94816">
        <ele>138.62097167969</ele>
        <time>2012-12-28T16:22:16Z</time>
      </trkpt>
      <trkpt lat="43.60003" lon="6.94806">
        <ele>138.89562988281</ele>
        <time>2012-12-28T16:22:18Z</time>
      </trkpt>
      <trkpt lat="43.59999" lon="6.94803">
        <ele>139</ele>
        <time>2012-12-28T16:22:19Z</time>
      </trkpt>
      <trkpt lat="43.5999" lon="6.94786">
        <ele>139</ele>
        <time>2012-12-28T16:22:22Z</time>
      </trkpt>
      <trkpt lat="43.59973" lon="6.94776">
        <ele>138.94839477539</ele>
        <time>2012-12-28T16:22:25Z</time>
      </trkpt>
      <trkpt lat="43.59968" lon="6.94773">
        <ele>138.81106567383</ele>
        <time>2012-12-28T16:22:26Z</time>
      </trkpt>
      <trkpt lat="43.59949" lon="6.94756">
        <ele>138.21197509766</ele>
        <time>2012-12-28T16:22:30Z</time>
      </trkpt>
      <trkpt lat="43.59937" lon="6.94747">
        <ele>138</ele>
        <time>2012-12-28T16:22:33Z</time>
      </trkpt>
      <trkpt lat="43.5993" lon="6.94738">
        <ele>138</ele>
        <time>2012-12-28T16:22:35Z</time>
      </trkpt>
      <trkpt lat="43.59916" lon="6.94722">
        <ele>138</ele>
        <time>2012-12-28T16:22:39Z</time>
      </trkpt>
      <trkpt lat="43.59903" lon="6.9471">
        <ele>138</ele>
        <time>2012-12-28T16:22:43Z</time>
      </trkpt>
      <trkpt lat="43.59891" lon="6.94702">
        <ele>138</ele>
        <time>2012-12-28T16:22:46Z</time>
      </trkpt>
      <trkpt lat="43.59877" lon="6.9469">
        <ele>138</ele>
        <time>2012-12-28T16:22:50Z</time>
      </trkpt>
      <trkpt lat="43.59871" lon="6.94682">
        <ele>138</ele>
        <time>2012-12-28T16:22:52Z</time>
      </trkpt>
      <trkpt lat="43.59864" lon="6.94679">
        <ele>138</ele>
        <time>2012-12-28T16:22:54Z</time>
      </trkpt>
      <trkpt lat="43.5986" lon="6.94677">
        <ele>138</ele>
        <time>2012-12-28T16:22:55Z</time>
      </trkpt>
      <trkpt lat="43.59843" lon="6.94661">
        <ele>138</ele>
        <time>2012-12-28T16:23:01Z</time>
      </trkpt>
      <trkpt lat="43.59824" lon="6.94645">
        <ele>138</ele>
        <time>2012-12-28T16:23:08Z</time>
      </trkpt>
      <trkpt lat="43.59807" lon="6.94631">
        <ele>138</ele>
        <time>2012-12-28T16:23:15Z</time>
      </trkpt>
      <trkpt lat="43.59796" lon="6.94625">
        <ele>138</ele>
        <time>2012-12-28T16:23:20Z</time>
      </trkpt>
      <trkpt lat="43.5979" lon="6.94618">
        <ele>138</ele>
        <time>2012-12-28T16:23:23Z</time>
      </trkpt>
      <trkpt lat="43.59786" lon="6.9461">
        <ele>138.00929260254</ele>
        <time>2012-12-28T16:23:26Z</time>
      </trkpt>
      <trkpt lat="43.59781" lon="6.946">
        <ele>138.04071044922</ele>
        <time>2012-12-28T16:23:30Z</time>
      </trkpt>
      <trkpt lat="43.59779" lon="6.94599">
        <ele>138.01916503906</ele>
        <time>2012-12-28T16:23:31Z</time>
      </trkpt>
      <trkpt lat="43.59773" lon="6.94595">
        <ele>137.7204284668</ele>
        <time>2012-12-28T16:23:34Z</time>
      </trkpt>
      <trkpt lat="43.59767" lon="6.94591">
        <ele>137.33515930176</ele>
        <time>2012-12-28T16:23:37Z</time>
      </trkpt>
      <trkpt lat="43.59755" lon="6.9458">
        <ele>136.39277648926</ele>
        <time>2012-12-28T16:23:43Z</time>
      </trkpt>
      <trkpt lat="43.59745" lon="6.9457">
        <ele>135.59260559082</ele>
        <time>2012-12-28T16:23:48Z</time>
      </trkpt>
      <trkpt lat="43.59743" lon="6.94569">
        <ele>135.41537475586</ele>
        <time>2012-12-28T16:23:49Z</time>
      </trkpt>
      <trkpt lat="43.59732" lon="6.94564">
        <ele>134.24751281738</ele>
        <time>2012-12-28T16:23:54Z</time>
      </trkpt>
      <trkpt lat="43.59731" lon="6.9456">
        <ele>134.0920715332</ele>
        <time>2012-12-28T16:23:55Z</time>
      </trkpt>
      <trkpt lat="43.59732" lon="6.94555">
        <ele>134.07089233398</ele>
        <time>2012-12-28T16:23:57Z</time>
      </trkpt>
      <trkpt lat="43.59737" lon="6.9455">
        <ele>135.14205932617</ele>
        <time>2012-12-28T16:24:00Z</time>
      </trkpt>
      <trkpt lat="43.5974" lon="6.94549">
        <ele>135.63128662109</ele>
        <time>2012-12-28T16:24:02Z</time>
      </trkpt>
      <trkpt lat="43.59742" lon="6.94549">
        <ele>135.77548217773</ele>
        <time>2012-12-28T16:24:03Z</time>
      </trkpt>
      <trkpt lat="43.59743" lon="6.9455">
        <ele>135.90939331055</ele>
        <time>2012-12-28T16:24:05Z</time>
      </trkpt>
      <trkpt lat="43.59743" lon="6.9455">
        <ele>135.93513488769</ele>
        <time>2012-12-28T16:24:06Z</time>
      </trkpt>
      <trkpt lat="43.59747" lon="6.94547">
        <ele>136.50161743164</ele>
        <time>2012-12-28T16:24:11Z</time>
      </trkpt>
      <trkpt lat="43.59748" lon="6.94547">
        <ele>136.64065551758</ele>
        <time>2012-12-28T16:24:12Z</time>
      </trkpt>
      <trkpt lat="43.59758" lon="6.94542">
        <ele>138.47554016113</ele>
        <time>2012-12-28T16:24:19Z</time>
      </trkpt>
      <trkpt lat="43.59765" lon="6.94532">
        <ele>140.24311828613</ele>
        <time>2012-12-28T16:24:25Z</time>
      </trkpt>
      <trkpt lat="43.59776" lon="6.94516">
        <ele>142.26719665527</ele>
        <time>2012-12-28T16:24:33Z</time>
      </trkpt>
      <trkpt lat="43.59777" lon="6.94506">
        <ele>142.72496032715</ele>
        <time>2012-12-28T16:24:38Z</time>
      </trkpt>
      <trkpt lat="43.59779" lon="6.94503">
        <ele>142.82232666016</ele>
        <time>2012-12-28T16:24:40Z</time>
      </trkpt>
      <trkpt lat="43.5979" lon="6.94491">
        <ele>143.02655029297</ele>
        <time>2012-12-28T16:24:46Z</time>
      </trkpt>
      <trkpt lat="43.59806" lon="6.94474">
        <ele>142.91119384766</ele>
        <time>2012-12-28T16:24:53Z</time>
      </trkpt>
      <trkpt lat="43.59814" lon="6.94461">
        <ele>143.10729980469</ele>
        <time>2012-12-28T16:24:58Z</time>
      </trkpt>
      <trkpt lat="43.59815" lon="6.94462">
        <ele>143.04721069336</ele>
        <time>2012-12-28T16:24:59Z</time>
      </trkpt>
      <trkpt lat="43.59818" lon="6.9446">
        <ele>142.96481323242</ele>
        <time>2012-12-28T16:25:01Z</time>
      </trkpt>
      <trkpt lat="43.59822" lon="6.94457">
        <ele>142.96310424805</ele>
        <time>2012-12-28T16:25:03Z</time>
      </trkpt>
      <trkpt lat="43.59824" lon="6.94453">
        <ele>143.03004455566</ele>
        <time>2012-12-28T16:25:05Z</time>
      </trkpt>
      <trkpt lat="43.59834" lon="6.94445">
        <ele>142.95098876953</ele>
        <time>2012-12-28T16:25:08Z</time>
      </trkpt>
      <trkpt lat="43.59847" lon="6.94448">
        <ele>141.87638854981</ele>
        <time>2012-12-28T16:25:13Z</time>
      </trkpt>
      <trkpt lat="43.59861" lon="6.94448">
        <ele>140.87048339844</ele>
        <time>2012-12-28T16:25:18Z</time>
      </trkpt>
      <trkpt lat="43.5988" lon="6.94443">
        <ele>141</ele>
        <time>2012-12-28T16:25:24Z</time>
      </trkpt>
      <trkpt lat="43.59895" lon="6.94443">
        <ele>140.79577636719</ele>
        <time>2012-12-28T16:25:29Z</time>
      </trkpt>
      <trkpt lat="43.59912" lon="6.94444">
        <ele>140.1640625</ele>
        <time>2012-12-28T16:25:35Z</time>
      </trkpt>
      <trkpt lat="43.59923" lon="6.9445">
        <ele>140</ele>
        <time>2012-12-28T16:25:38Z</time>
      </trkpt>
      <trkpt lat="43.59925" lon="6.94452">
        <ele>140</ele>
        <time>2012-12-28T16:25:39Z</time>
      </trkpt>
      <trkpt lat="43.59928" lon="6.94451">
        <ele>140</ele>
        <time>2012-12-28T16:25:40Z</time>
      </trkpt>
      <trkpt lat="43.59933" lon="6.94443">
        <ele>140</ele>
        <time>2012-12-28T16:25:42Z</time>
      </trkpt>
      <trkpt lat="43.59935" lon="6.94432">
        <ele>140</ele>
        <time>2012-12-28T16:25:46Z</time>
      </trkpt>
      <trkpt lat="43.59935" lon="6.94429">
        <ele>140</ele>
        <time>2012-12-28T16:25:47Z</time>
      </trkpt>
      <trkpt lat="43.59938" lon="6.94428">
        <ele>140</ele>
        <time>2012-12-28T16:25:48Z</time>
      </trkpt>
      <trkpt lat="43.59944" lon="6.94421">
        <ele>140</ele>
        <time>2012-12-28T16:25:51Z</time>
      </trkpt>
      <trkpt lat="43.59951" lon="6.94419">
        <ele>140</ele>
        <time>2012-12-28T16:25:53Z</time>
      </trkpt>
      <trkpt lat="43.59955" lon="6.9442">
        <ele>140</ele>
        <time>2012-12-28T16:25:54Z</time>
      </trkpt>
      <trkpt lat="43.59971" lon="6.94413">
        <ele>140</ele>
        <time>2012-12-28T16:25:58Z</time>
      </trkpt>
      <trkpt lat="43.59989" lon="6.94415">
        <ele>140</ele>
        <time>2012-12-28T16:26:02Z</time>
      </trkpt>
      <trkpt lat="43.59998" lon="6.94413">
        <ele>140</ele>
        <time>2012-12-28T16:26:04Z</time>
      </trkpt>
      <trkpt lat="43.60007" lon="6.9441">
        <ele>140</ele>
        <time>2012-12-28T16:26:07Z</time>
      </trkpt>
      <trkpt lat="43.60023" lon="6.94401">
        <ele>140</ele>
        <time>2012-12-28T16:26:12Z</time>
      </trkpt>
      <trkpt lat="43.60034" lon="6.94395">
        <ele>140</ele>
        <time>2012-12-28T16:26:15Z</time>
      </trkpt>
      <trkpt lat="43.60036" lon="6.94389">
        <ele>140</ele>
        <time>2012-12-28T16:26:16Z</time>
      </trkpt>
      <trkpt lat="43.60035" lon="6.9437">
        <ele>139.30395507812</ele>
        <time>2012-12-28T16:26:20Z</time>
      </trkpt>
      <trkpt lat="43.60032" lon="6.94359">
        <ele>138.92327880859</ele>
        <time>2012-12-28T16:26:22Z</time>
      </trkpt>
      <trkpt lat="43.60028" lon="6.94334">
        <ele>138.03204345703</ele>
        <time>2012-12-28T16:26:27Z</time>
      </trkpt>
      <trkpt lat="43.6002" lon="6.94321">
        <ele>137.55816650391</ele>
        <time>2012-12-28T16:26:31Z</time>
      </trkpt>
      <trkpt lat="43.60017" lon="6.94315">
        <ele>137.35046386719</ele>
        <time>2012-12-28T16:26:33Z</time>
      </trkpt>
      <trkpt lat="43.6001" lon="6.94307">
        <ele>137.0517578125</ele>
        <time>2012-12-28T16:26:36Z</time>
      </trkpt>
      <trkpt lat="43.60007" lon="6.94302">
        <ele>136.72930908203</ele>
        <time>2012-12-28T16:26:40Z</time>
      </trkpt>
      <trkpt lat="43.60004" lon="6.94297">
        <ele>136.37911987305</ele>
        <time>2012-12-28T16:26:42Z</time>
      </trkpt>
      <trkpt lat="43.60001" lon="6.94292">
        <ele>136.03923034668</ele>
        <time>2012-12-28T16:26:44Z</time>
      </trkpt>
      <trkpt lat="43.59998" lon="6.94287">
        <ele>135.671875</ele>
        <time>2012-12-28T16:26:47Z</time>
      </trkpt>
      <trkpt lat="43.59998" lon="6.94284">
        <ele>135.44528198242</ele>
        <time>2012-12-28T16:26:48Z</time>
      </trkpt>
      <trkpt lat="43.60001" lon="6.94278">
        <ele>135.00582885742</ele>
        <time>2012-12-28T16:26:52Z</time>
      </trkpt>
      <trkpt lat="43.60005" lon="6.94266">
        <ele>134.5583190918</ele>
        <time>2012-12-28T16:26:56Z</time>
      </trkpt>
      <trkpt lat="43.60006" lon="6.94263">
        <ele>134.47076416016</ele>
        <time>2012-12-28T16:26:57Z</time>
      </trkpt>
      <trkpt lat="43.6001" lon="6.94247">
        <ele>133.87854003906</ele>
        <time>2012-12-28T16:27:02Z</time>
      </trkpt>
      <trkpt lat="43.60015" lon="6.94229">
        <ele>133.24682617188</ele>
        <time>2012-12-28T16:27:07Z</time>
      </trkpt>
      <trkpt lat="43.60023" lon="6.94206">
        <ele>131.83195495606</ele>
        <time>2012-12-28T16:27:13Z</time>
      </trkpt>
      <trkpt lat="43.60031" lon="6.94194">
        <ele>130.97177124023</ele>
        <time>2012-12-28T16:27:17Z</time>
      </trkpt>
      <trkpt lat="43.60034" lon="6.94187">
        <ele>130.69364929199</ele>
        <time>2012-12-28T16:27:19Z</time>
      </trkpt>
      <trkpt lat="43.60039" lon="6.94181">
        <ele>130.32295227051</ele>
        <time>2012-12-28T16:27:21Z</time>
      </trkpt>
      <trkpt lat="43.60056" lon="6.94153">
        <ele>128.50024414062</ele>
        <time>2012-12-28T16:27:28Z</time>
      </trkpt>
      <trkpt lat="43.60075" lon="6.94129">
        <ele>127.40882873535</ele>
        <time>2012-12-28T16:27:34Z</time>
      </trkpt>
      <trkpt lat="43.60084" lon="6.94119">
        <ele>126.56866455078</ele>
        <time>2012-12-28T16:27:37Z</time>
      </trkpt>
      <trkpt lat="43.6009" lon="6.94116">
        <ele>126.32395935059</ele>
        <time>2012-12-28T16:27:39Z</time>
      </trkpt>
      <trkpt lat="43.60095" lon="6.94116">
        <ele>126.29135894775</ele>
        <time>2012-12-28T16:27:42Z</time>
      </trkpt>
      <trkpt lat="43.60099" lon="6.94117">
        <ele>126.30778503418</ele>
        <time>2012-12-28T16:27:46Z</time>
      </trkpt>
      <trkpt lat="43.60104" lon="6.9412">
        <ele>126.42505645752</ele>
        <time>2012-12-28T16:27:50Z</time>
      </trkpt>
      <trkpt lat="43.60105" lon="6.94122">
        <ele>126.46091461182</ele>
        <time>2012-12-28T16:27:53Z</time>
      </trkpt>
      <trkpt lat="43.60106" lon="6.94122">
        <ele>126.44845581055</ele>
        <time>2012-12-28T16:27:54Z</time>
      </trkpt>
      <trkpt lat="43.60107" lon="6.9412">
        <ele>126.35221099853</ele>
        <time>2012-12-28T16:27:55Z</time>
      </trkpt>
      <trkpt lat="43.60111" lon="6.94112">
        <ele>126.03629302978</ele>
        <time>2012-12-28T16:27:59Z</time>
      </trkpt>
      <trkpt lat="43.60111" lon="6.94111">
        <ele>126.00741577148</ele>
        <time>2012-12-28T16:28:00Z</time>
      </trkpt>
      <trkpt lat="43.60113" lon="6.94108">
        <ele>125.71722412109</ele>
        <time>2012-12-28T16:28:01Z</time>
      </trkpt>
      <trkpt lat="43.60115" lon="6.94103">
        <ele>125.25717163086</ele>
        <time>2012-12-28T16:28:03Z</time>
      </trkpt>
      <trkpt lat="43.60119" lon="6.94094">
        <ele>124.4606628418</ele>
        <time>2012-12-28T16:28:07Z</time>
      </trkpt>
      <trkpt lat="43.6012" lon="6.94094">
        <ele>124.4606628418</ele>
        <time>2012-12-28T16:28:08Z</time>
      </trkpt>
      <trkpt lat="43.60122" lon="6.94093">
        <ele>124.29586791992</ele>
        <time>2012-12-28T16:28:13Z</time>
      </trkpt>
      <trkpt lat="43.60122" lon="6.94089">
        <ele>124.02464294434</ele>
        <time>2012-12-28T16:28:17Z</time>
      </trkpt>
      <trkpt lat="43.60125" lon="6.9409">
        <ele>123.99031066894</ele>
        <time>2012-12-28T16:28:21Z</time>
      </trkpt>
      <trkpt lat="43.60134" lon="6.94098">
        <ele>124.22033691406</ele>
        <time>2012-12-28T16:28:26Z</time>
      </trkpt>
      <trkpt lat="43.60146" lon="6.94102">
        <ele>123.91304016113</ele>
        <time>2012-12-28T16:28:30Z</time>
      </trkpt>
      <trkpt lat="43.60169" lon="6.94112">
        <ele>123.02365875244</ele>
        <time>2012-12-28T16:28:36Z</time>
      </trkpt>
      <trkpt lat="43.60181" lon="6.9411">
        <ele>122.96730041504</ele>
        <time>2012-12-28T16:28:39Z</time>
      </trkpt>
      <trkpt lat="43.60199" lon="6.94109">
        <ele>122.78189849853</ele>
        <time>2012-12-28T16:28:45Z</time>
      </trkpt>
      <trkpt lat="43.60208" lon="6.94107">
        <ele>122.37506103516</ele>
        <time>2012-12-28T16:28:51Z</time>
      </trkpt>
      <trkpt lat="43.60208" lon="6.94104">
        <ele>122.26691436768</ele>
        <time>2012-12-28T16:28:54Z</time>
      </trkpt>
      <trkpt lat="43.60206" lon="6.94099">
        <ele>122.14675140381</ele>
        <time>2012-12-28T16:28:56Z</time>
      </trkpt>
      <trkpt lat="43.60201" lon="6.94089">
        <ele>121.99912261963</ele>
        <time>2012-12-28T16:29:00Z</time>
      </trkpt>
      <trkpt lat="43.60196" lon="6.94086">
        <ele>122.06092071533</ele>
        <time>2012-12-28T16:29:02Z</time>
      </trkpt>
      <trkpt lat="43.60189" lon="6.94084">
        <ele>122.01286315918</ele>
        <time>2012-12-28T16:29:04Z</time>
      </trkpt>
      <trkpt lat="43.60186" lon="6.94068">
        <ele>122</ele>
        <time>2012-12-28T16:29:08Z</time>
      </trkpt>
      <trkpt lat="43.60188" lon="6.94066">
        <ele>122</ele>
        <time>2012-12-28T16:29:09Z</time>
      </trkpt>
      <trkpt lat="43.60191" lon="6.94065">
        <ele>122</ele>
        <time>2012-12-28T16:29:10Z</time>
      </trkpt>
      <trkpt lat="43.60202" lon="6.94058">
        <ele>121.74078369141</ele>
        <time>2012-12-28T16:29:13Z</time>
      </trkpt>
      <trkpt lat="43.60215" lon="6.94052">
        <ele>121.22978210449</ele>
        <time>2012-12-28T16:29:17Z</time>
      </trkpt>
      <trkpt lat="43.60238" lon="6.94046">
        <ele>120.44989013672</ele>
        <time>2012-12-28T16:29:24Z</time>
      </trkpt>
      <trkpt lat="43.60265" lon="6.94034">
        <ele>120</ele>
        <time>2012-12-28T16:29:32Z</time>
      </trkpt>
      <trkpt lat="43.60266" lon="6.9403">
        <ele>120</ele>
        <time>2012-12-28T16:29:34Z</time>
      </trkpt>
      <trkpt lat="43.60266" lon="6.94027">
        <ele>120</ele>
        <time>2012-12-28T16:29:35Z</time>
      </trkpt>
      <trkpt lat="43.60268" lon="6.94019">
        <ele>120</ele>
        <time>2012-12-28T16:29:38Z</time>
      </trkpt>
      <trkpt lat="43.60274" lon="6.94017">
        <ele>120</ele>
        <time>2012-12-28T16:29:40Z</time>
      </trkpt>
      <trkpt lat="43.60287" lon="6.94014">
        <ele>120</ele>
        <time>2012-12-28T16:29:44Z</time>
      </trkpt>
      <trkpt lat="43.60294" lon="6.94011">
        <ele>120</ele>
        <time>2012-12-28T16:29:46Z</time>
      </trkpt>
      <trkpt lat="43.60304" lon="6.94011">
        <ele>120</ele>
        <time>2012-12-28T16:29:50Z</time>
      </trkpt>
      <trkpt lat="43.60304" lon="6.9401">
        <ele>120</ele>
        <time>2012-12-28T16:29:51Z</time>
      </trkpt>
      <trkpt lat="43.6031" lon="6.94007">
        <ele>120</ele>
        <time>2012-12-28T16:29:54Z</time>
      </trkpt>
      <trkpt lat="43.60319" lon="6.94008">
        <ele>120</ele>
        <time>2012-12-28T16:29:59Z</time>
      </trkpt>
      <trkpt lat="43.6032" lon="6.94008">
        <ele>120</ele>
        <time>2012-12-28T16:30:00Z</time>
      </trkpt>
      <trkpt lat="43.60326" lon="6.94001">
        <ele>120</ele>
        <time>2012-12-28T16:30:03Z</time>
      </trkpt>
      <trkpt lat="43.6034" lon="6.93993">
        <ele>119.25107574463</ele>
        <time>2012-12-28T16:30:08Z</time>
      </trkpt>
      <trkpt lat="43.60342" lon="6.93982">
        <ele>118.81036376953</ele>
        <time>2012-12-28T16:30:11Z</time>
      </trkpt>
      <trkpt lat="43.60342" lon="6.93977">
        <ele>118.8533782959</ele>
        <time>2012-12-28T16:30:12Z</time>
      </trkpt>
      <trkpt lat="43.60345" lon="6.93957">
        <ele>118.13391113281</ele>
        <time>2012-12-28T16:30:16Z</time>
      </trkpt>
      <trkpt lat="43.60357" lon="6.93943">
        <ele>115.74969482422</ele>
        <time>2012-12-28T16:30:19Z</time>
      </trkpt>
      <trkpt lat="43.6036" lon="6.93937">
        <ele>115.13224792481</ele>
        <time>2012-12-28T16:30:20Z</time>
      </trkpt>
      <trkpt lat="43.60367" lon="6.93924">
        <ele>114.22916412353</ele>
        <time>2012-12-28T16:30:22Z</time>
      </trkpt>
      <trkpt lat="43.60374" lon="6.93915">
        <ele>113.01343536377</ele>
        <time>2012-12-28T16:30:24Z</time>
      </trkpt>
      <trkpt lat="43.60382" lon="6.939">
        <ele>111.3328704834</ele>
        <time>2012-12-28T16:30:28Z</time>
      </trkpt>
      <trkpt lat="43.60393" lon="6.93884">
        <ele>109.2760925293</ele>
        <time>2012-12-28T16:30:32Z</time>
      </trkpt>
      <trkpt lat="43.60403" lon="6.93863">
        <ele>107.096824646</ele>
        <time>2012-12-28T16:30:37Z</time>
      </trkpt>
      <trkpt lat="43.60411" lon="6.93842">
        <ele>105.74851226807</ele>
        <time>2012-12-28T16:30:42Z</time>
      </trkpt>
      <trkpt lat="43.60414" lon="6.93839">
        <ele>105.42750549316</ele>
        <time>2012-12-28T16:30:43Z</time>
      </trkpt>
      <trkpt lat="43.60419" lon="6.93834">
        <ele>104.92739868164</ele>
        <time>2012-12-28T16:30:45Z</time>
      </trkpt>
      <trkpt lat="43.60429" lon="6.93822">
        <ele>104.16522216797</ele>
        <time>2012-12-28T16:30:50Z</time>
      </trkpt>
      <trkpt lat="43.60437" lon="6.9381">
        <ele>103.39617919922</ele>
        <time>2012-12-28T16:30:55Z</time>
      </trkpt>
      <trkpt lat="43.60448" lon="6.93785">
        <ele>101.98662567139</ele>
        <time>2012-12-28T16:31:01Z</time>
      </trkpt>
      <trkpt lat="43.6046" lon="6.93783">
        <ele>101.08025360107</ele>
        <time>2012-12-28T16:31:05Z</time>
      </trkpt>
      <trkpt lat="43.60471" lon="6.93772">
        <ele>100.08170318603</ele>
        <time>2012-12-28T16:31:09Z</time>
      </trkpt>
      <trkpt lat="43.60488" lon="6.93754">
        <ele>93.617942810059</ele>
        <time>2012-12-28T16:31:16Z</time>
      </trkpt>
      <trkpt lat="43.60506" lon="6.93758">
        <ele>87.640579223633</ele>
        <time>2012-12-28T16:31:21Z</time>
      </trkpt>
      <trkpt lat="43.60521" lon="6.93766">
        <ele>82.644248962402</ele>
        <time>2012-12-28T16:31:26Z</time>
      </trkpt>
      <trkpt lat="43.60535" lon="6.93775">
        <ele>75.518669128418</ele>
        <time>2012-12-28T16:31:30Z</time>
      </trkpt>
      <trkpt lat="43.60548" lon="6.9379">
        <ele>70.57160949707</ele>
        <time>2012-12-28T16:31:35Z</time>
      </trkpt>
      <trkpt lat="43.60545" lon="6.93807">
        <ele>74.318115234375</ele>
        <time>2012-12-28T16:31:38Z</time>
      </trkpt>
      <trkpt lat="43.60545" lon="6.93821">
        <ele>76.311241149902</ele>
        <time>2012-12-28T16:31:41Z</time>
      </trkpt>
      <trkpt lat="43.6055" lon="6.93829">
        <ele>75.165725708008</ele>
        <time>2012-12-28T16:31:43Z</time>
      </trkpt>
      <trkpt lat="43.60556" lon="6.93829">
        <ele>72.280448913574</ele>
        <time>2012-12-28T16:31:46Z</time>
      </trkpt>
      <trkpt lat="43.60561" lon="6.93837">
        <ele>72.92066192627</ele>
        <time>2012-12-28T16:31:49Z</time>
      </trkpt>
      <trkpt lat="43.60571" lon="6.93847">
        <ele>73.143333435059</ele>
        <time>2012-12-28T16:31:54Z</time>
      </trkpt>
      <trkpt lat="43.60577" lon="6.93848">
        <ele>72.697814941406</ele>
        <time>2012-12-28T16:31:58Z</time>
      </trkpt>
      <trkpt lat="43.60579" lon="6.93848">
        <ele>72.416618347168</ele>
        <time>2012-12-28T16:31:59Z</time>
      </trkpt>
      <trkpt lat="43.60593" lon="6.93844">
        <ele>69.569152832031</ele>
        <time>2012-12-28T16:32:05Z</time>
      </trkpt>
      <trkpt lat="43.60604" lon="6.93852">
        <ele>68.092864990234</ele>
        <time>2012-12-28T16:32:09Z</time>
      </trkpt>
      <trkpt lat="43.60608" lon="6.93854">
        <ele>67.674011230469</ele>
        <time>2012-12-28T16:32:10Z</time>
      </trkpt>
      <trkpt lat="43.60622" lon="6.93861">
        <ele>65.63362121582</ele>
        <time>2012-12-28T16:32:14Z</time>
      </trkpt>
      <trkpt lat="43.60642" lon="6.93865">
        <ele>62.343856811523</ele>
        <time>2012-12-28T16:32:19Z</time>
      </trkpt>
      <trkpt lat="43.60662" lon="6.9386">
        <ele>57.706745147705</ele>
        <time>2012-12-28T16:32:24Z</time>
      </trkpt>
      <trkpt lat="43.60673" lon="6.9386">
        <ele>55.586547851562</ele>
        <time>2012-12-28T16:32:28Z</time>
      </trkpt>
      <trkpt lat="43.60678" lon="6.93865">
        <ele>55.484191894531</ele>
        <time>2012-12-28T16:32:30Z</time>
      </trkpt>
      <trkpt lat="43.60679" lon="6.93868">
        <ele>55.98205947876</ele>
        <time>2012-12-28T16:32:31Z</time>
      </trkpt>
      <trkpt lat="43.60687" lon="6.93871">
        <ele>54.559104919434</ele>
        <time>2012-12-28T16:32:35Z</time>
      </trkpt>
      <trkpt lat="43.60699" lon="6.93875">
        <ele>52.351554870605</ele>
        <time>2012-12-28T16:32:40Z</time>
      </trkpt>
      <trkpt lat="43.60701" lon="6.93876">
        <ele>51.929023742676</ele>
        <time>2012-12-28T16:32:42Z</time>
      </trkpt>
      <trkpt lat="43.60703" lon="6.93876">
        <ele>51.593013763428</ele>
        <time>2012-12-28T16:32:44Z</time>
      </trkpt>
      <trkpt lat="43.60706" lon="6.93878">
        <ele>51.070629119873</ele>
        <time>2012-12-28T16:32:48Z</time>
      </trkpt>
      <trkpt lat="43.60711" lon="6.93879">
        <ele>49.839687347412</ele>
        <time>2012-12-28T16:32:52Z</time>
      </trkpt>
      <trkpt lat="43.60718" lon="6.93881">
        <ele>48.189476013184</ele>
        <time>2012-12-28T16:32:58Z</time>
      </trkpt>
      <trkpt lat="43.60731" lon="6.93887">
        <ele>47.276832580566</ele>
        <time>2012-12-28T16:33:04Z</time>
      </trkpt>
      <trkpt lat="43.60736" lon="6.93891">
        <ele>47.226860046387</ele>
        <time>2012-12-28T16:33:09Z</time>
      </trkpt>
      <trkpt lat="43.60738" lon="6.93893">
        <ele>47.251758575439</ele>
        <time>2012-12-28T16:33:14Z</time>
      </trkpt>
      <trkpt lat="43.60741" lon="6.93897">
        <ele>47.18115234375</ele>
        <time>2012-12-28T16:33:18Z</time>
      </trkpt>
      <trkpt lat="43.60742" lon="6.93898">
        <ele>47.192413330078</ele>
        <time>2012-12-28T16:33:19Z</time>
      </trkpt>
      <trkpt lat="43.60744" lon="6.93899">
        <ele>46.924175262451</ele>
        <time>2012-12-28T16:33:25Z</time>
      </trkpt>
      <trkpt lat="43.6075" lon="6.939">
        <ele>46</ele>
        <time>2012-12-28T16:33:32Z</time>
      </trkpt>
      <trkpt lat="43.60754" lon="6.93907">
        <ele>46</ele>
        <time>2012-12-28T16:33:38Z</time>
      </trkpt>
      <trkpt lat="43.60754" lon="6.93908">
        <ele>46</ele>
        <time>2012-12-28T16:33:39Z</time>
      </trkpt>
      <trkpt lat="43.60754" lon="6.93912">
        <ele>46</ele>
        <time>2012-12-28T16:33:43Z</time>
      </trkpt>
      <trkpt lat="43.60754" lon="6.93912">
        <ele>46</ele>
        <time>2012-12-28T16:33:44Z</time>
      </trkpt>
      <trkpt lat="43.60754" lon="6.93915">
        <ele>46</ele>
        <time>2012-12-28T16:33:48Z</time>
      </trkpt>
      <trkpt lat="43.60755" lon="6.93918">
        <ele>46.078617095947</ele>
        <time>2012-12-28T16:33:49Z</time>
      </trkpt>
      <trkpt lat="43.60762" lon="6.9392">
        <ele>46.204475402832</ele>
        <time>2012-12-28T16:33:52Z</time>
      </trkpt>
      <trkpt lat="43.60764" lon="6.9393">
        <ele>46.725830078125</ele>
        <time>2012-12-28T16:33:55Z</time>
      </trkpt>
      <trkpt lat="43.60764" lon="6.9394">
        <ele>47.212589263916</ele>
        <time>2012-12-28T16:33:58Z</time>
      </trkpt>
      <trkpt lat="43.60765" lon="6.93941">
        <ele>47.207466125488</ele>
        <time>2012-12-28T16:33:59Z</time>
      </trkpt>
      <trkpt lat="43.60769" lon="6.93953">
        <ele>47.443717956543</ele>
        <time>2012-12-28T16:34:03Z</time>
      </trkpt>
      <trkpt lat="43.60769" lon="6.93953">
        <ele>47.479415893555</ele>
        <time>2012-12-28T16:34:04Z</time>
      </trkpt>
      <trkpt lat="43.60767" lon="6.93958">
        <ele>48.061614990234</ele>
        <time>2012-12-28T16:34:09Z</time>
      </trkpt>
      <trkpt lat="43.60766" lon="6.93966">
        <ele>48.957649230957</ele>
        <time>2012-12-28T16:34:14Z</time>
      </trkpt>
      <trkpt lat="43.60767" lon="6.93968">
        <ele>48.804233551025</ele>
        <time>2012-12-28T16:34:15Z</time>
      </trkpt>
      <trkpt lat="43.60767" lon="6.93969">
        <ele>48.798446655273</ele>
        <time>2012-12-28T16:34:17Z</time>
      </trkpt>
      <trkpt lat="43.60767" lon="6.93973">
        <ele>49.182960510254</ele>
        <time>2012-12-28T16:34:20Z</time>
      </trkpt>
      <trkpt lat="43.60769" lon="6.93978">
        <ele>48.956588745117</ele>
        <time>2012-12-28T16:34:24Z</time>
      </trkpt>
      <trkpt lat="43.60769" lon="6.93978">
        <ele>48.943553924561</ele>
        <time>2012-12-28T16:34:26Z</time>
      </trkpt>
      <trkpt lat="43.60773" lon="6.93986">
        <ele>48.422050476074</ele>
        <time>2012-12-28T16:34:30Z</time>
      </trkpt>
      <trkpt lat="43.60777" lon="6.94003">
        <ele>47.630058288574</ele>
        <time>2012-12-28T16:34:35Z</time>
      </trkpt>
      <trkpt lat="43.6078" lon="6.94006">
        <ele>47.402256011963</ele>
        <time>2012-12-28T16:34:37Z</time>
      </trkpt>
      <trkpt lat="43.60784" lon="6.94004">
        <ele>47.222560882568</ele>
        <time>2012-12-28T16:34:39Z</time>
      </trkpt>
      <trkpt lat="43.60791" lon="6.94006">
        <ele>47.20495223999</ele>
        <time>2012-12-28T16:34:42Z</time>
      </trkpt>
      <trkpt lat="43.60792" lon="6.94008">
        <ele>47.288280487061</ele>
        <time>2012-12-28T16:34:43Z</time>
      </trkpt>
      <trkpt lat="43.60796" lon="6.94025">
        <ele>47.606159210205</ele>
        <time>2012-12-28T16:34:50Z</time>
      </trkpt>
      <trkpt lat="43.60797" lon="6.94029">
        <ele>47.63304901123</ele>
        <time>2012-12-28T16:34:54Z</time>
      </trkpt>
      <trkpt lat="43.608" lon="6.94033">
        <ele>47.49681854248</ele>
        <time>2012-12-28T16:34:58Z</time>
      </trkpt>
      <trkpt lat="43.60805" lon="6.94044">
        <ele>47.048133850098</ele>
        <time>2012-12-28T16:35:05Z</time>
      </trkpt>
      <trkpt lat="43.60807" lon="6.94051">
        <ele>47</ele>
        <time>2012-12-28T16:35:12Z</time>
      </trkpt>
      <trkpt lat="43.60811" lon="6.94052">
        <ele>47</ele>
        <time>2012-12-28T16:35:14Z</time>
      </trkpt>
      <trkpt lat="43.60812" lon="6.94051">
        <ele>47</ele>
        <time>2012-12-28T16:35:15Z</time>
      </trkpt>
      <trkpt lat="43.60813" lon="6.94044">
        <ele>47</ele>
        <time>2012-12-28T16:35:19Z</time>
      </trkpt>
      <trkpt lat="43.60816" lon="6.94036">
        <ele>47</ele>
        <time>2012-12-28T16:35:21Z</time>
      </trkpt>
      <trkpt lat="43.60817" lon="6.94026">
        <ele>47</ele>
        <time>2012-12-28T16:35:23Z</time>
      </trkpt>
      <trkpt lat="43.60828" lon="6.93988">
        <ele>47.679859161377</ele>
        <time>2012-12-28T16:35:30Z</time>
      </trkpt>
      <trkpt lat="43.60847" lon="6.9396">
        <ele>50.984298706055</ele>
        <time>2012-12-28T16:35:37Z</time>
      </trkpt>
      <trkpt lat="43.60852" lon="6.93958">
        <ele>51.490699768066</ele>
        <time>2012-12-28T16:35:38Z</time>
      </trkpt>
      <trkpt lat="43.60859" lon="6.93961">
        <ele>52.196228027344</ele>
        <time>2012-12-28T16:35:40Z</time>
      </trkpt>
      <trkpt lat="43.60861" lon="6.93972">
        <ele>52.016082763672</ele>
        <time>2012-12-28T16:35:42Z</time>
      </trkpt>
      <trkpt lat="43.60876" lon="6.93993">
        <ele>50.902355194092</ele>
        <time>2012-12-28T16:35:47Z</time>
      </trkpt>
      <trkpt lat="43.60894" lon="6.94005">
        <ele>50.828132629395</ele>
        <time>2012-12-28T16:35:51Z</time>
      </trkpt>
      <trkpt lat="43.60904" lon="6.94009">
        <ele>50.689086914062</ele>
        <time>2012-12-28T16:35:53Z</time>
      </trkpt>
      <trkpt lat="43.60934" lon="6.94023">
        <ele>51.402877807617</ele>
        <time>2012-12-28T16:36:00Z</time>
      </trkpt>
      <trkpt lat="43.60942" lon="6.94029">
        <ele>51.745208740234</ele>
        <time>2012-12-28T16:36:02Z</time>
      </trkpt>
      <trkpt lat="43.60955" lon="6.94036">
        <ele>51.765182495117</ele>
        <time>2012-12-28T16:36:05Z</time>
      </trkpt>
      <trkpt lat="43.60964" lon="6.94041">
        <ele>51.79264831543</ele>
        <time>2012-12-28T16:36:07Z</time>
      </trkpt>
      <trkpt lat="43.60984" lon="6.94055">
        <ele>51.901874542236</ele>
        <time>2012-12-28T16:36:12Z</time>
      </trkpt>
      <trkpt lat="43.61" lon="6.94049">
        <ele>53.848968505859</ele>
        <time>2012-12-28T16:36:16Z</time>
      </trkpt>
      <trkpt lat="43.6101" lon="6.94035">
        <ele>57.43212890625</ele>
        <time>2012-12-28T16:36:20Z</time>
      </trkpt>
      <trkpt lat="43.61013" lon="6.94027">
        <ele>58.890827178955</ele>
        <time>2012-12-28T16:36:23Z</time>
      </trkpt>
      <trkpt lat="43.61014" lon="6.9402">
        <ele>59.7414894104</ele>
        <time>2012-12-28T16:36:25Z</time>
      </trkpt>
      <trkpt lat="43.61013" lon="6.94">
        <ele>61.151123046875</ele>
        <time>2012-12-28T16:36:31Z</time>
      </trkpt>
      <trkpt lat="43.61014" lon="6.93987">
        <ele>63.05912399292</ele>
        <time>2012-12-28T16:36:35Z</time>
      </trkpt>
      <trkpt lat="43.61013" lon="6.93984">
        <ele>63.168659210205</ele>
        <time>2012-12-28T16:36:36Z</time>
      </trkpt>
      <trkpt lat="43.61009" lon="6.93963">
        <ele>63.533546447754</ele>
        <time>2012-12-28T16:36:42Z</time>
      </trkpt>
      <trkpt lat="43.61006" lon="6.93929">
        <ele>62.611865997314</ele>
        <time>2012-12-28T16:36:52Z</time>
      </trkpt>
      <trkpt lat="43.61007" lon="6.93927">
        <ele>63.324047088623</ele>
        <time>2012-12-28T16:36:53Z</time>
      </trkpt>
      <trkpt lat="43.61011" lon="6.93924">
        <ele>65.094680786133</ele>
        <time>2012-12-28T16:36:55Z</time>
      </trkpt>
      <trkpt lat="43.61018" lon="6.93924">
        <ele>68.067008972168</ele>
        <time>2012-12-28T16:36:59Z</time>
      </trkpt>
      <trkpt lat="43.61023" lon="6.93924">
        <ele>70.512260437012</ele>
        <time>2012-12-28T16:37:01Z</time>
      </trkpt>
      <trkpt lat="43.61037" lon="6.93922">
        <ele>74.405807495117</ele>
        <time>2012-12-28T16:37:07Z</time>
      </trkpt>
      <trkpt lat="43.61043" lon="6.9392">
        <ele>75.571388244629</ele>
        <time>2012-12-28T16:37:10Z</time>
      </trkpt>
      <trkpt lat="43.61049" lon="6.9392">
        <ele>76.690620422363</ele>
        <time>2012-12-28T16:37:13Z</time>
      </trkpt>
      <trkpt lat="43.61052" lon="6.93918">
        <ele>77.380699157715</ele>
        <time>2012-12-28T16:37:15Z</time>
      </trkpt>
      <trkpt lat="43.61056" lon="6.93916">
        <ele>78.020935058594</ele>
        <time>2012-12-28T16:37:17Z</time>
      </trkpt>
      <trkpt lat="43.61058" lon="6.93916">
        <ele>78.075866699219</ele>
        <time>2012-12-28T16:37:18Z</time>
      </trkpt>
      <trkpt lat="43.6106" lon="6.93918">
        <ele>78.106719970703</ele>
        <time>2012-12-28T16:37:23Z</time>
      </trkpt>
      <trkpt lat="43.61063" lon="6.93918">
        <ele>78.223220825195</ele>
        <time>2012-12-28T16:37:29Z</time>
      </trkpt>
      <trkpt lat="43.61068" lon="6.93919">
        <ele>78.391799926758</ele>
        <time>2012-12-28T16:37:36Z</time>
      </trkpt>
      <trkpt lat="43.61069" lon="6.9392">
        <ele>78.441055297852</ele>
        <time>2012-12-28T16:37:41Z</time>
      </trkpt>
      <trkpt lat="43.61074" lon="6.9392">
        <ele>78.646759033203</ele>
        <time>2012-12-28T16:37:58Z</time>
      </trkpt>
      <trkpt lat="43.61079" lon="6.9392">
        <ele>78.840263366699</ele>
        <time>2012-12-28T16:38:03Z</time>
      </trkpt>
      <trkpt lat="43.61092" lon="6.93924">
        <ele>79.298095703125</ele>
        <time>2012-12-28T16:38:09Z</time>
      </trkpt>
      <trkpt lat="43.61103" lon="6.93925">
        <ele>79.696350097656</ele>
        <time>2012-12-28T16:38:14Z</time>
      </trkpt>
      <trkpt lat="43.61121" lon="6.9393">
        <ele>80</ele>
        <time>2012-12-28T16:38:21Z</time>
      </trkpt>
      <trkpt lat="43.61135" lon="6.9394">
        <ele>80</ele>
        <time>2012-12-28T16:38:26Z</time>
      </trkpt>
      <trkpt lat="43.61148" lon="6.93945">
        <ele>80</ele>
        <time>2012-12-28T16:38:31Z</time>
      </trkpt>
      <trkpt lat="43.61148" lon="6.93943">
        <ele>80</ele>
        <time>2012-12-28T16:38:32Z</time>
      </trkpt>
      <trkpt lat="43.61157" lon="6.93934">
        <ele>80</ele>
        <time>2012-12-28T16:38:36Z</time>
      </trkpt>
      <trkpt lat="43.61173" lon="6.93925">
        <ele>80</ele>
        <time>2012-12-28T16:38:41Z</time>
      </trkpt>
      <trkpt lat="43.61185" lon="6.93926">
        <ele>80</ele>
        <time>2012-12-28T16:38:46Z</time>
      </trkpt>
      <trkpt lat="43.612" lon="6.9393">
        <ele>81.094688415527</ele>
        <time>2012-12-28T16:38:51Z</time>
      </trkpt>
      <trkpt lat="43.61216" lon="6.93933">
        <ele>84.683990478516</ele>
        <time>2012-12-28T16:38:57Z</time>
      </trkpt>
      <trkpt lat="43.61238" lon="6.93934">
        <ele>88.351196289062</ele>
        <time>2012-12-28T16:39:05Z</time>
      </trkpt>
      <trkpt lat="43.61246" lon="6.9394">
        <ele>90.066467285156</ele>
        <time>2012-12-28T16:39:09Z</time>
      </trkpt>
      <trkpt lat="43.61251" lon="6.93942">
        <ele>90.897789001465</ele>
        <time>2012-12-28T16:39:11Z</time>
      </trkpt>
      <trkpt lat="43.61269" lon="6.93946">
        <ele>93.169296264648</ele>
        <time>2012-12-28T16:39:17Z</time>
      </trkpt>
      <trkpt lat="43.61285" lon="6.9394">
        <ele>94.36743927002</ele>
        <time>2012-12-28T16:39:22Z</time>
      </trkpt>
      <trkpt lat="43.61309" lon="6.93929">
        <ele>96.854438781738</ele>
        <time>2012-12-28T16:39:30Z</time>
      </trkpt>
      <trkpt lat="43.61334" lon="6.93914">
        <ele>99.018493652344</ele>
        <time>2012-12-28T16:39:40Z</time>
      </trkpt>
      <trkpt lat="43.61354" lon="6.93903">
        <ele>99.746337890625</ele>
        <time>2012-12-28T16:39:49Z</time>
      </trkpt>
      <trkpt lat="43.61367" lon="6.93897">
        <ele>100</ele>
        <time>2012-12-28T16:39:55Z</time>
      </trkpt>
      <trkpt lat="43.61382" lon="6.93894">
        <ele>100</ele>
        <time>2012-12-28T16:40:01Z</time>
      </trkpt>
      <trkpt lat="43.61394" lon="6.93893">
        <ele>100</ele>
        <time>2012-12-28T16:40:06Z</time>
      </trkpt>
      <trkpt lat="43.61409" lon="6.93893">
        <ele>100</ele>
        <time>2012-12-28T16:40:11Z</time>
      </trkpt>
      <trkpt lat="43.61426" lon="6.93901">
        <ele>100</ele>
        <time>2012-12-28T16:40:17Z</time>
      </trkpt>
      <trkpt lat="43.61435" lon="6.93907">
        <ele>100</ele>
        <time>2012-12-28T16:40:22Z</time>
      </trkpt>
      <trkpt lat="43.61451" lon="6.93909">
        <ele>100</ele>
        <time>2012-12-28T16:40:28Z</time>
      </trkpt>
      <trkpt lat="43.61465" lon="6.93907">
        <ele>100</ele>
        <time>2012-12-28T16:40:33Z</time>
      </trkpt>
      <trkpt lat="43.61481" lon="6.93911">
        <ele>100</ele>
        <time>2012-12-28T16:40:40Z</time>
      </trkpt>
      <trkpt lat="43.61493" lon="6.9392">
        <ele>100</ele>
        <time>2012-12-28T16:40:46Z</time>
      </trkpt>
      <trkpt lat="43.61508" lon="6.93932">
        <ele>100</ele>
        <time>2012-12-28T16:40:53Z</time>
      </trkpt>
      <trkpt lat="43.61518" lon="6.93943">
        <ele>100</ele>
        <time>2012-12-28T16:40:59Z</time>
      </trkpt>
      <trkpt lat="43.61529" lon="6.93948">
        <ele>100</ele>
        <time>2012-12-28T16:41:04Z</time>
      </trkpt>
      <trkpt lat="43.61544" lon="6.93945">
        <ele>100</ele>
        <time>2012-12-28T16:41:10Z</time>
      </trkpt>
      <trkpt lat="43.6156" lon="6.93948">
        <ele>100</ele>
        <time>2012-12-28T16:41:15Z</time>
      </trkpt>
      <trkpt lat="43.61582" lon="6.9396">
        <ele>100</ele>
        <time>2012-12-28T16:41:23Z</time>
      </trkpt>
      <trkpt lat="43.61599" lon="6.93963">
        <ele>100</ele>
        <time>2012-12-28T16:41:29Z</time>
      </trkpt>
      <trkpt lat="43.61615" lon="6.93972">
        <ele>100</ele>
        <time>2012-12-28T16:41:35Z</time>
      </trkpt>
      <trkpt lat="43.61629" lon="6.93974">
        <ele>100</ele>
        <time>2012-12-28T16:41:41Z</time>
      </trkpt>
      <trkpt lat="43.61631" lon="6.93976">
        <ele>100</ele>
        <time>2012-12-28T16:41:42Z</time>
      </trkpt>
      <trkpt lat="43.61636" lon="6.93985">
        <ele>100</ele>
        <time>2012-12-28T16:41:45Z</time>
      </trkpt>
      <trkpt lat="43.61637" lon="6.93991">
        <ele>100</ele>
        <time>2012-12-28T16:41:47Z</time>
      </trkpt>
      <trkpt lat="43.61637" lon="6.94002">
        <ele>100</ele>
        <time>2012-12-28T16:41:51Z</time>
      </trkpt>
      <trkpt lat="43.61641" lon="6.94024">
        <ele>100</ele>
        <time>2012-12-28T16:41:59Z</time>
      </trkpt>
      <trkpt lat="43.61645" lon="6.94041">
        <ele>102.72250366211</ele>
        <time>2012-12-28T16:42:06Z</time>
      </trkpt>
      <trkpt lat="43.61645" lon="6.94049">
        <ele>104.28883361816</ele>
        <time>2012-12-28T16:42:09Z</time>
      </trkpt>
      <trkpt lat="43.61647" lon="6.94052">
        <ele>105.14725494385</ele>
        <time>2012-12-28T16:42:11Z</time>
      </trkpt>
      <trkpt lat="43.61648" lon="6.94053">
        <ele>105.46090698242</ele>
        <time>2012-12-28T16:42:12Z</time>
      </trkpt>
      <trkpt lat="43.6166" lon="6.9405">
        <ele>105.83111572266</ele>
        <time>2012-12-28T16:42:18Z</time>
      </trkpt>
      <trkpt lat="43.61678" lon="6.94041">
        <ele>104.12506103516</ele>
        <time>2012-12-28T16:42:24Z</time>
      </trkpt>
      <trkpt lat="43.61699" lon="6.94023">
        <ele>101.40000152588</ele>
        <time>2012-12-28T16:42:30Z</time>
      </trkpt>
      <trkpt lat="43.61718" lon="6.94012">
        <ele>107.04624938965</ele>
        <time>2012-12-28T16:42:35Z</time>
      </trkpt>
      <trkpt lat="43.61739" lon="6.94013">
        <ele>110.56818389893</ele>
        <time>2012-12-28T16:42:41Z</time>
      </trkpt>
      <trkpt lat="43.6176" lon="6.94016">
        <ele>112.99703979492</ele>
        <time>2012-12-28T16:42:47Z</time>
      </trkpt>
      <trkpt lat="43.61774" lon="6.94017">
        <ele>114.27242279053</ele>
        <time>2012-12-28T16:42:52Z</time>
      </trkpt>
      <trkpt lat="43.61775" lon="6.94017">
        <ele>114.34989929199</ele>
        <time>2012-12-28T16:42:53Z</time>
      </trkpt>
      <trkpt lat="43.61775" lon="6.94017">
        <ele>114.36128997803</ele>
        <time>2012-12-28T16:42:56Z</time>
      </trkpt>
      <trkpt lat="43.6178" lon="6.94017">
        <ele>114.84185028076</ele>
        <time>2012-12-28T16:43:10Z</time>
      </trkpt>
      <trkpt lat="43.61785" lon="6.94019">
        <ele>115.42378234863</ele>
        <time>2012-12-28T16:43:12Z</time>
      </trkpt>
      <trkpt lat="43.61791" lon="6.94021">
        <ele>116.17394256592</ele>
        <time>2012-12-28T16:43:14Z</time>
      </trkpt>
      <trkpt lat="43.61804" lon="6.94028">
        <ele>117.84420776367</ele>
        <time>2012-12-28T16:43:18Z</time>
      </trkpt>
      <trkpt lat="43.61821" lon="6.94028">
        <ele>119.11083984375</ele>
        <time>2012-12-28T16:43:23Z</time>
      </trkpt>
      <trkpt lat="43.61838" lon="6.94025">
        <ele>119.90314483643</ele>
        <time>2012-12-28T16:43:29Z</time>
      </trkpt>
      <trkpt lat="43.61847" lon="6.94035">
        <ele>120</ele>
        <time>2012-12-28T16:43:33Z</time>
      </trkpt>
      <trkpt lat="43.61849" lon="6.94037">
        <ele>120</ele>
        <time>2012-12-28T16:43:34Z</time>
      </trkpt>
      <trkpt lat="43.61861" lon="6.94037">
        <ele>120</ele>
        <time>2012-12-28T16:43:38Z</time>
      </trkpt>
      <trkpt lat="43.61873" lon="6.94029">
        <ele>120</ele>
        <time>2012-12-28T16:43:43Z</time>
      </trkpt>
      <trkpt lat="43.61886" lon="6.94032">
        <ele>120</ele>
        <time>2012-12-28T16:43:48Z</time>
      </trkpt>
      <trkpt lat="43.61905" lon="6.94042">
        <ele>120</ele>
        <time>2012-12-28T16:43:56Z</time>
      </trkpt>
      <trkpt lat="43.61924" lon="6.94056">
        <ele>120</ele>
        <time>2012-12-28T16:44:04Z</time>
      </trkpt>
      <trkpt lat="43.61948" lon="6.94084">
        <ele>120</ele>
        <time>2012-12-28T16:44:15Z</time>
      </trkpt>
      <trkpt lat="43.61967" lon="6.94093">
        <ele>120</ele>
        <time>2012-12-28T16:44:22Z</time>
      </trkpt>
      <trkpt lat="43.61979" lon="6.94102">
        <ele>120</ele>
        <time>2012-12-28T16:44:29Z</time>
      </trkpt>
      <trkpt lat="43.61992" lon="6.94111">
        <ele>120</ele>
        <time>2012-12-28T16:44:35Z</time>
      </trkpt>
      <trkpt lat="43.61998" lon="6.94117">
        <ele>120</ele>
        <time>2012-12-28T16:44:41Z</time>
      </trkpt>
      <trkpt lat="43.62" lon="6.94118">
        <ele>120</ele>
        <time>2012-12-28T16:44:47Z</time>
      </trkpt>
      <trkpt lat="43.62011" lon="6.94121">
        <ele>120</ele>
        <time>2012-12-28T16:44:53Z</time>
      </trkpt>
      <trkpt lat="43.62022" lon="6.94121">
        <ele>120</ele>
        <time>2012-12-28T16:44:58Z</time>
      </trkpt>
      <trkpt lat="43.62036" lon="6.94118">
        <ele>120</ele>
        <time>2012-12-28T16:45:06Z</time>
      </trkpt>
      <trkpt lat="43.62046" lon="6.94119">
        <ele>120</ele>
        <time>2012-12-28T16:45:12Z</time>
      </trkpt>
      <trkpt lat="43.6206" lon="6.94119">
        <ele>120</ele>
        <time>2012-12-28T16:45:19Z</time>
      </trkpt>
      <trkpt lat="43.62067" lon="6.94116">
        <ele>120</ele>
        <time>2012-12-28T16:45:24Z</time>
      </trkpt>
      <trkpt lat="43.62074" lon="6.94112">
        <ele>120</ele>
        <time>2012-12-28T16:45:30Z</time>
      </trkpt>
      <trkpt lat="43.62075" lon="6.94112">
        <ele>120</ele>
        <time>2012-12-28T16:45:31Z</time>
      </trkpt>
      <trkpt lat="43.62079" lon="6.9411">
        <ele>120</ele>
        <time>2012-12-28T16:45:35Z</time>
      </trkpt>
      <trkpt lat="43.62079" lon="6.94107">
        <ele>120</ele>
        <time>2012-12-28T16:45:37Z</time>
      </trkpt>
      <trkpt lat="43.62074" lon="6.94103">
        <ele>120</ele>
        <time>2012-12-28T16:45:41Z</time>
      </trkpt>
      <trkpt lat="43.62072" lon="6.94103">
        <ele>120</ele>
        <time>2012-12-28T16:45:42Z</time>
      </trkpt>
      <trkpt lat="43.62057" lon="6.94102">
        <ele>120</ele>
        <time>2012-12-28T16:45:50Z</time>
      </trkpt>
      <trkpt lat="43.62042" lon="6.94094">
        <ele>120</ele>
        <time>2012-12-28T16:45:58Z</time>
      </trkpt>
      <trkpt lat="43.62032" lon="6.94088">
        <ele>120</ele>
        <time>2012-12-28T16:46:04Z</time>
      </trkpt>
      <trkpt lat="43.6203" lon="6.94086">
        <ele>120</ele>
        <time>2012-12-28T16:46:05Z</time>
      </trkpt>
      <trkpt lat="43.6202" lon="6.9408">
        <ele>120</ele>
        <time>2012-12-28T16:46:11Z</time>
      </trkpt>
      <trkpt lat="43.62014" lon="6.94074">
        <ele>120</ele>
        <time>2012-12-28T16:46:15Z</time>
      </trkpt>
      <trkpt lat="43.62009" lon="6.94072">
        <ele>120</ele>
        <time>2012-12-28T16:46:18Z</time>
      </trkpt>
      <trkpt lat="43.62" lon="6.94068">
        <ele>120</ele>
        <time>2012-12-28T16:46:24Z</time>
      </trkpt>
      <trkpt lat="43.61987" lon="6.94055">
        <ele>120.01232910156</ele>
        <time>2012-12-28T16:46:32Z</time>
      </trkpt>
      <trkpt lat="43.61975" lon="6.9404">
        <ele>120.10078430176</ele>
        <time>2012-12-28T16:46:40Z</time>
      </trkpt>
      <trkpt lat="43.61966" lon="6.94024">
        <ele>120</ele>
        <time>2012-12-28T16:46:47Z</time>
      </trkpt>
      <trkpt lat="43.61961" lon="6.94001">
        <ele>120</ele>
        <time>2012-12-28T16:46:55Z</time>
      </trkpt>
      <trkpt lat="43.61959" lon="6.93977">
        <ele>121.27570343018</ele>
        <time>2012-12-28T16:47:03Z</time>
      </trkpt>
      <trkpt lat="43.61961" lon="6.93955">
        <ele>123.34289550781</ele>
        <time>2012-12-28T16:47:11Z</time>
      </trkpt>
      <trkpt lat="43.61969" lon="6.93925">
        <ele>128.08807373047</ele>
        <time>2012-12-28T16:47:22Z</time>
      </trkpt>
      <trkpt lat="43.61976" lon="6.93908">
        <ele>131.59631347656</ele>
        <time>2012-12-28T16:47:29Z</time>
      </trkpt>
      <trkpt lat="43.61987" lon="6.93883">
        <ele>136.38679504394</ele>
        <time>2012-12-28T16:47:39Z</time>
      </trkpt>
      <trkpt lat="43.61998" lon="6.93863">
        <ele>139.66806030273</ele>
        <time>2012-12-28T16:47:47Z</time>
      </trkpt>
      <trkpt lat="43.62012" lon="6.93843">
        <ele>144.33042907715</ele>
        <time>2012-12-28T16:47:56Z</time>
      </trkpt>
      <trkpt lat="43.62027" lon="6.93827">
        <ele>149.19528198242</ele>
        <time>2012-12-28T16:48:04Z</time>
      </trkpt>
      <trkpt lat="43.62043" lon="6.93808">
        <ele>154.19950866699</ele>
        <time>2012-12-28T16:48:12Z</time>
      </trkpt>
      <trkpt lat="43.62064" lon="6.93782">
        <ele>158.5408782959</ele>
        <time>2012-12-28T16:48:22Z</time>
      </trkpt>
      <trkpt lat="43.62078" lon="6.93764">
        <ele>159.62280273438</ele>
        <time>2012-12-28T16:48:29Z</time>
      </trkpt>
      <trkpt lat="43.62092" lon="6.9374">
        <ele>160.61157226562</ele>
        <time>2012-12-28T16:48:38Z</time>
      </trkpt>
      <trkpt lat="43.62092" lon="6.93737">
        <ele>160.61157226562</ele>
        <time>2012-12-28T16:48:39Z</time>
      </trkpt>
      <trkpt lat="43.62089" lon="6.93726">
        <ele>160.39184570312</ele>
        <time>2012-12-28T16:48:43Z</time>
      </trkpt>
      <trkpt lat="43.62081" lon="6.93719">
        <ele>159.82704162598</ele>
        <time>2012-12-28T16:48:47Z</time>
      </trkpt>
      <trkpt lat="43.62078" lon="6.93719">
        <ele>159.64755249023</ele>
        <time>2012-12-28T16:48:48Z</time>
      </trkpt>
      <trkpt lat="43.62067" lon="6.93722">
        <ele>158.798828125</ele>
        <time>2012-12-28T16:48:51Z</time>
      </trkpt>
      <trkpt lat="43.62062" lon="6.93724">
        <ele>158.46923828125</ele>
        <time>2012-12-28T16:48:53Z</time>
      </trkpt>
      <trkpt lat="43.62061" lon="6.93723">
        <ele>158.38684082031</ele>
        <time>2012-12-28T16:48:54Z</time>
      </trkpt>
      <trkpt lat="43.62048" lon="6.93725">
        <ele>157.19236755371</ele>
        <time>2012-12-28T16:49:00Z</time>
      </trkpt>
      <trkpt lat="43.62032" lon="6.93722">
        <ele>155.39973449707</ele>
        <time>2012-12-28T16:49:07Z</time>
      </trkpt>
      <trkpt lat="43.6202" lon="6.9372">
        <ele>154.64869689941</ele>
        <time>2012-12-28T16:49:12Z</time>
      </trkpt>
      <trkpt lat="43.62013" lon="6.93712">
        <ele>154.72079467773</ele>
        <time>2012-12-28T16:49:17Z</time>
      </trkpt>
      <trkpt lat="43.61996" lon="6.93708">
        <ele>153.80412292481</ele>
        <time>2012-12-28T16:49:23Z</time>
      </trkpt>
      <trkpt lat="43.61983" lon="6.937">
        <ele>153.44020080566</ele>
        <time>2012-12-28T16:49:28Z</time>
      </trkpt>
      <trkpt lat="43.6197" lon="6.93695">
        <ele>152.62834167481</ele>
        <time>2012-12-28T16:49:34Z</time>
      </trkpt>
      <trkpt lat="43.61954" lon="6.93702">
        <ele>150.03622436523</ele>
        <time>2012-12-28T16:49:40Z</time>
      </trkpt>
      <trkpt lat="43.61931" lon="6.93717">
        <ele>147.05673217773</ele>
        <time>2012-12-28T16:49:47Z</time>
      </trkpt>
      <trkpt lat="43.61923" lon="6.93735">
        <ele>145.55314636231</ele>
        <time>2012-12-28T16:49:51Z</time>
      </trkpt>
      <trkpt lat="43.61905" lon="6.93761">
        <ele>143.1904296875</ele>
        <time>2012-12-28T16:49:58Z</time>
      </trkpt>
      <trkpt lat="43.61895" lon="6.93766">
        <ele>142.64797973633</ele>
        <time>2012-12-28T16:50:01Z</time>
      </trkpt>
      <trkpt lat="43.61893" lon="6.93765">
        <ele>142.60333251953</ele>
        <time>2012-12-28T16:50:02Z</time>
      </trkpt>
      <trkpt lat="43.61881" lon="6.93753">
        <ele>142.35946655273</ele>
        <time>2012-12-28T16:50:08Z</time>
      </trkpt>
      <trkpt lat="43.61877" lon="6.93758">
        <ele>141.88739013672</ele>
        <time>2012-12-28T16:50:12Z</time>
      </trkpt>
      <trkpt lat="43.61877" lon="6.93761">
        <ele>141.74835205078</ele>
        <time>2012-12-28T16:50:13Z</time>
      </trkpt>
      <trkpt lat="43.61875" lon="6.93765">
        <ele>141.46337890625</ele>
        <time>2012-12-28T16:50:15Z</time>
      </trkpt>
      <trkpt lat="43.61874" lon="6.93766">
        <ele>141.31918334961</ele>
        <time>2012-12-28T16:50:16Z</time>
      </trkpt>
      <trkpt lat="43.61862" lon="6.93778">
        <ele>140.05404663086</ele>
        <time>2012-12-28T16:50:21Z</time>
      </trkpt>
      <trkpt lat="43.61856" lon="6.93784">
        <ele>138.09080505371</ele>
        <time>2012-12-28T16:50:23Z</time>
      </trkpt>
      <trkpt lat="43.61854" lon="6.9379">
        <ele>136.63037109375</ele>
        <time>2012-12-28T16:50:25Z</time>
      </trkpt>
      <trkpt lat="43.61851" lon="6.93809">
        <ele>132.66178894043</ele>
        <time>2012-12-28T16:50:29Z</time>
      </trkpt>
      <trkpt lat="43.61848" lon="6.93831">
        <ele>127.91181182861</ele>
        <time>2012-12-28T16:50:33Z</time>
      </trkpt>
      <trkpt lat="43.61846" lon="6.93839">
        <ele>126.74740600586</ele>
        <time>2012-12-28T16:50:35Z</time>
      </trkpt>
      <trkpt lat="43.61843" lon="6.93841">
        <ele>126.38311767578</ele>
        <time>2012-12-28T16:50:36Z</time>
      </trkpt>
      <trkpt lat="43.61836" lon="6.93847">
        <ele>125.59802246094</ele>
        <time>2012-12-28T16:50:40Z</time>
      </trkpt>
      <trkpt lat="43.61837" lon="6.93851">
        <ele>125.1893157959</ele>
        <time>2012-12-28T16:50:45Z</time>
      </trkpt>
      <trkpt lat="43.61836" lon="6.93854">
        <ele>124.84455871582</ele>
        <time>2012-12-28T16:50:46Z</time>
      </trkpt>
      <trkpt lat="43.6183" lon="6.93855">
        <ele>124.06755065918</ele>
        <time>2012-12-28T16:50:49Z</time>
      </trkpt>
      <trkpt lat="43.61827" lon="6.93854">
        <ele>123.74327850342</ele>
        <time>2012-12-28T16:50:50Z</time>
      </trkpt>
      <trkpt lat="43.61817" lon="6.93849">
        <ele>122.678855896</ele>
        <time>2012-12-28T16:50:53Z</time>
      </trkpt>
      <trkpt lat="43.61815" lon="6.93848">
        <ele>122.4821472168</ele>
        <time>2012-12-28T16:50:56Z</time>
      </trkpt>
      <trkpt lat="43.61818" lon="6.93849">
        <ele>122.81986236572</ele>
        <time>2012-12-28T16:51:00Z</time>
      </trkpt>
      <trkpt lat="43.61819" lon="6.9385">
        <ele>122.92530059815</ele>
        <time>2012-12-28T16:51:01Z</time>
      </trkpt>
      <trkpt lat="43.61823" lon="6.93853">
        <ele>123.30341339111</ele>
        <time>2012-12-28T16:51:07Z</time>
      </trkpt>
      <trkpt lat="43.61818" lon="6.9385">
        <ele>122.68395996094</ele>
        <time>2012-12-28T16:51:15Z</time>
      </trkpt>
      <trkpt lat="43.61815" lon="6.93848">
        <ele>122.46714782715</ele>
        <time>2012-12-28T16:51:16Z</time>
      </trkpt>
      <trkpt lat="43.61811" lon="6.93843">
        <ele>122.13422393799</ele>
        <time>2012-12-28T16:51:19Z</time>
      </trkpt>
      <trkpt lat="43.61802" lon="6.93838">
        <ele>121.12705993652</ele>
        <time>2012-12-28T16:51:22Z</time>
      </trkpt>
      <trkpt lat="43.61797" lon="6.93833">
        <ele>120.83395385742</ele>
        <time>2012-12-28T16:51:24Z</time>
      </trkpt>
      <trkpt lat="43.61795" lon="6.93834">
        <ele>120.36488342285</ele>
        <time>2012-12-28T16:51:25Z</time>
      </trkpt>
      <trkpt lat="43.6179" lon="6.93838">
        <ele>119.48254394531</ele>
        <time>2012-12-28T16:51:27Z</time>
      </trkpt>
      <trkpt lat="43.6179" lon="6.93841">
        <ele>119.29371643066</ele>
        <time>2012-12-28T16:51:28Z</time>
      </trkpt>
      <trkpt lat="43.61788" lon="6.93845">
        <ele>118.62423706055</ele>
        <time>2012-12-28T16:51:30Z</time>
      </trkpt>
      <trkpt lat="43.61786" lon="6.93845">
        <ele>118.25688171387</ele>
        <time>2012-12-28T16:51:31Z</time>
      </trkpt>
      <trkpt lat="43.61777" lon="6.93849">
        <ele>116.77355957031</ele>
        <time>2012-12-28T16:51:34Z</time>
      </trkpt>
      <trkpt lat="43.61774" lon="6.93853">
        <ele>116.21051025391</ele>
        <time>2012-12-28T16:51:35Z</time>
      </trkpt>
      <trkpt lat="43.61772" lon="6.93873">
        <ele>114.14743041992</ele>
        <time>2012-12-28T16:51:39Z</time>
      </trkpt>
      <trkpt lat="43.61779" lon="6.93884">
        <ele>113.62746429443</ele>
        <time>2012-12-28T16:51:42Z</time>
      </trkpt>
      <trkpt lat="43.61781" lon="6.93888">
        <ele>113.47468566894</ele>
        <time>2012-12-28T16:51:44Z</time>
      </trkpt>
      <trkpt lat="43.61779" lon="6.93891">
        <ele>113.0545425415</ele>
        <time>2012-12-28T16:51:45Z</time>
      </trkpt>
      <trkpt lat="43.61779" lon="6.93895">
        <ele>112.49241638184</ele>
        <time>2012-12-28T16:51:46Z</time>
      </trkpt>
      <trkpt lat="43.61778" lon="6.93904">
        <ele>111.41002655029</ele>
        <time>2012-12-28T16:51:48Z</time>
      </trkpt>
      <trkpt lat="43.61776" lon="6.93906">
        <ele>111.01117706299</ele>
        <time>2012-12-28T16:51:49Z</time>
      </trkpt>
      <trkpt lat="43.61769" lon="6.93916">
        <ele>109.04908752441</ele>
        <time>2012-12-28T16:51:53Z</time>
      </trkpt>
      <trkpt lat="43.61766" lon="6.93928">
        <ele>108.79774475098</ele>
        <time>2012-12-28T16:51:57Z</time>
      </trkpt>
      <trkpt lat="43.61768" lon="6.93936">
        <ele>109.08025360107</ele>
        <time>2012-12-28T16:52:00Z</time>
      </trkpt>
      <trkpt lat="43.61769" lon="6.93943">
        <ele>109.48815917969</ele>
        <time>2012-12-28T16:52:04Z</time>
      </trkpt>
      <trkpt lat="43.61777" lon="6.93953">
        <ele>111.51021575928</ele>
        <time>2012-12-28T16:52:08Z</time>
      </trkpt>
      <trkpt lat="43.61787" lon="6.93961">
        <ele>113.73123168945</ele>
        <time>2012-12-28T16:52:12Z</time>
      </trkpt>
      <trkpt lat="43.61794" lon="6.93966">
        <ele>114.92622375488</ele>
        <time>2012-12-28T16:52:15Z</time>
      </trkpt>
      <trkpt lat="43.61803" lon="6.93971">
        <ele>116.59248352051</ele>
        <time>2012-12-28T16:52:19Z</time>
      </trkpt>
      <trkpt lat="43.61812" lon="6.93978">
        <ele>117.45166015625</ele>
        <time>2012-12-28T16:52:23Z</time>
      </trkpt>
      <trkpt lat="43.61814" lon="6.93981">
        <ele>117.64392089844</ele>
        <time>2012-12-28T16:52:24Z</time>
      </trkpt>
      <trkpt lat="43.61821" lon="6.93984">
        <ele>118.11083984375</ele>
        <time>2012-12-28T16:52:26Z</time>
      </trkpt>
      <trkpt lat="43.61824" lon="6.93985">
        <ele>118.33056640625</ele>
        <time>2012-12-28T16:52:27Z</time>
      </trkpt>
      <trkpt lat="43.61842" lon="6.93995">
        <ele>119</ele>
        <time>2012-12-28T16:52:33Z</time>
      </trkpt>
      <trkpt lat="43.61844" lon="6.94004">
        <ele>119.15985107422</ele>
        <time>2012-12-28T16:52:36Z</time>
      </trkpt>
      <trkpt lat="43.61841" lon="6.94011">
        <ele>119.38472747803</ele>
        <time>2012-12-28T16:52:38Z</time>
      </trkpt>
      <trkpt lat="43.61841" lon="6.94014">
        <ele>119.49115753174</ele>
        <time>2012-12-28T16:52:39Z</time>
      </trkpt>
      <trkpt lat="43.6184" lon="6.94018">
        <ele>119.63363647461</ele>
        <time>2012-12-28T16:52:40Z</time>
      </trkpt>
      <trkpt lat="43.61839" lon="6.94021">
        <ele>119.75551605225</ele>
        <time>2012-12-28T16:52:41Z</time>
      </trkpt>
      <trkpt lat="43.61834" lon="6.94025">
        <ele>119.88426208496</ele>
        <time>2012-12-28T16:52:43Z</time>
      </trkpt>
      <trkpt lat="43.61819" lon="6.94029">
        <ele>118.94604492188</ele>
        <time>2012-12-28T16:52:48Z</time>
      </trkpt>
      <trkpt lat="43.61803" lon="6.94024">
        <ele>117.65194702148</ele>
        <time>2012-12-28T16:52:52Z</time>
      </trkpt>
      <trkpt lat="43.61782" lon="6.94016">
        <ele>115.04097747803</ele>
        <time>2012-12-28T16:52:57Z</time>
      </trkpt>
      <trkpt lat="43.61769" lon="6.94015">
        <ele>113.74159240723</ele>
        <time>2012-12-28T16:53:00Z</time>
      </trkpt>
      <trkpt lat="43.61759" lon="6.94014">
        <ele>112.81195831299</ele>
        <time>2012-12-28T16:53:02Z</time>
      </trkpt>
      <trkpt lat="43.61736" lon="6.9401">
        <ele>109.81755828857</ele>
        <time>2012-12-28T16:53:07Z</time>
      </trkpt>
      <trkpt lat="43.61717" lon="6.9401">
        <ele>106.63208770752</ele>
        <time>2012-12-28T16:53:11Z</time>
      </trkpt>
      <trkpt lat="43.61709" lon="6.94014">
        <ele>104.39678955078</ele>
        <time>2012-12-28T16:53:13Z</time>
      </trkpt>
      <trkpt lat="43.61702" lon="6.94019">
        <ele>102.57905578613</ele>
        <time>2012-12-28T16:53:15Z</time>
      </trkpt>
      <trkpt lat="43.61698" lon="6.94025">
        <ele>101.15657043457</ele>
        <time>2012-12-28T16:53:17Z</time>
      </trkpt>
      <trkpt lat="43.61695" lon="6.94027">
        <ele>100.37092590332</ele>
        <time>2012-12-28T16:53:18Z</time>
      </trkpt>
      <trkpt lat="43.6168" lon="6.94037">
        <ele>102.84401702881</ele>
        <time>2012-12-28T16:53:23Z</time>
      </trkpt>
      <trkpt lat="43.61655" lon="6.94048">
        <ele>105.00849151611</ele>
        <time>2012-12-28T16:53:30Z</time>
      </trkpt>
      <trkpt lat="43.61636" lon="6.94053">
        <ele>104.2720413208</ele>
        <time>2012-12-28T16:53:35Z</time>
      </trkpt>
      <trkpt lat="43.61622" lon="6.94063">
        <ele>104.21018218994</ele>
        <time>2012-12-28T16:53:40Z</time>
      </trkpt>
      <trkpt lat="43.61607" lon="6.94073">
        <ele>103.68724060059</ele>
        <time>2012-12-28T16:53:45Z</time>
      </trkpt>
      <trkpt lat="43.61591" lon="6.94096">
        <ele>104.64900970459</ele>
        <time>2012-12-28T16:53:53Z</time>
      </trkpt>
      <trkpt lat="43.61583" lon="6.94119">
        <ele>105.58283233643</ele>
        <time>2012-12-28T16:54:01Z</time>
      </trkpt>
      <trkpt lat="43.61583" lon="6.94122">
        <ele>105.76194000244</ele>
        <time>2012-12-28T16:54:02Z</time>
      </trkpt>
      <trkpt lat="43.61588" lon="6.94127">
        <ele>106.96172332764</ele>
        <time>2012-12-28T16:54:05Z</time>
      </trkpt>
      <trkpt lat="43.61591" lon="6.94127">
        <ele>107.63422393799</ele>
        <time>2012-12-28T16:54:07Z</time>
      </trkpt>
      <trkpt lat="43.61596" lon="6.94127">
        <ele>108.4529800415</ele>
        <time>2012-12-28T16:54:10Z</time>
      </trkpt>
      <trkpt lat="43.61606" lon="6.94122">
        <ele>109.77883148193</ele>
        <time>2012-12-28T16:54:16Z</time>
      </trkpt>
      <trkpt lat="43.61614" lon="6.9412">
        <ele>111.16516876221</ele>
        <time>2012-12-28T16:54:21Z</time>
      </trkpt>
      <trkpt lat="43.61626" lon="6.94116">
        <ele>113.95072937012</ele>
        <time>2012-12-28T16:54:28Z</time>
      </trkpt>
      <trkpt lat="43.61641" lon="6.94112">
        <ele>117.35245513916</ele>
        <time>2012-12-28T16:54:36Z</time>
      </trkpt>
      <trkpt lat="43.61655" lon="6.94109">
        <ele>118.39254760742</ele>
        <time>2012-12-28T16:54:44Z</time>
      </trkpt>
      <trkpt lat="43.6167" lon="6.94105">
        <ele>119.10015869141</ele>
        <time>2012-12-28T16:54:52Z</time>
      </trkpt>
      <trkpt lat="43.61686" lon="6.94101">
        <ele>118.55084228516</ele>
        <time>2012-12-28T16:55:01Z</time>
      </trkpt>
      <trkpt lat="43.61705" lon="6.94096">
        <ele>118.17614746094</ele>
        <time>2012-12-28T16:55:12Z</time>
      </trkpt>
      <trkpt lat="43.6172" lon="6.94093">
        <ele>118.23107910156</ele>
        <time>2012-12-28T16:55:20Z</time>
      </trkpt>
      <trkpt lat="43.61732" lon="6.9409">
        <ele>117.91300201416</ele>
        <time>2012-12-28T16:55:27Z</time>
      </trkpt>
      <trkpt lat="43.61745" lon="6.94091">
        <ele>117.85179138184</ele>
        <time>2012-12-28T16:55:34Z</time>
      </trkpt>
      <trkpt lat="43.61758" lon="6.94092">
        <ele>118.02017974853</ele>
        <time>2012-12-28T16:55:41Z</time>
      </trkpt>
      <trkpt lat="43.61774" lon="6.94097">
        <ele>118.49395751953</ele>
        <time>2012-12-28T16:55:49Z</time>
      </trkpt>
      <trkpt lat="43.61789" lon="6.94109">
        <ele>118.91065216065</ele>
        <time>2012-12-28T16:55:57Z</time>
      </trkpt>
      <trkpt lat="43.61802" lon="6.94118">
        <ele>119.40045166016</ele>
        <time>2012-12-28T16:56:05Z</time>
      </trkpt>
      <trkpt lat="43.61812" lon="6.9413">
        <ele>119.76295471191</ele>
        <time>2012-12-28T16:56:12Z</time>
      </trkpt>
      <trkpt lat="43.61822" lon="6.94144">
        <ele>120.38095855713</ele>
        <time>2012-12-28T16:56:19Z</time>
      </trkpt>
      <trkpt lat="43.61829" lon="6.94157">
        <ele>120.45290374756</ele>
        <time>2012-12-28T16:56:25Z</time>
      </trkpt>
      <trkpt lat="43.6184" lon="6.94179">
        <ele>122.74118041992</ele>
        <time>2012-12-28T16:56:33Z</time>
      </trkpt>
      <trkpt lat="43.61847" lon="6.94206">
        <ele>128.55337524414</ele>
        <time>2012-12-28T16:56:40Z</time>
      </trkpt>
      <trkpt lat="43.61854" lon="6.94233">
        <ele>133.66275024414</ele>
        <time>2012-12-28T16:56:47Z</time>
      </trkpt>
      <trkpt lat="43.6186" lon="6.94253">
        <ele>135.68888854981</ele>
        <time>2012-12-28T16:56:53Z</time>
      </trkpt>
      <trkpt lat="43.61868" lon="6.94265">
        <ele>137.21894836426</ele>
        <time>2012-12-28T16:56:58Z</time>
      </trkpt>
      <trkpt lat="43.61872" lon="6.9428">
        <ele>139.25534057617</ele>
        <time>2012-12-28T16:57:04Z</time>
      </trkpt>
      <trkpt lat="43.61878" lon="6.94296">
        <ele>139.58102416992</ele>
        <time>2012-12-28T16:57:11Z</time>
      </trkpt>
      <trkpt lat="43.61884" lon="6.94315">
        <ele>140</ele>
        <time>2012-12-28T16:57:19Z</time>
      </trkpt>
      <trkpt lat="43.61883" lon="6.94331">
        <ele>140</ele>
        <time>2012-12-28T16:57:26Z</time>
      </trkpt>
      <trkpt lat="43.61878" lon="6.94351">
        <ele>140</ele>
        <time>2012-12-28T16:57:35Z</time>
      </trkpt>
      <trkpt lat="43.61874" lon="6.94369">
        <ele>141.3073425293</ele>
        <time>2012-12-28T16:57:42Z</time>
      </trkpt>
      <trkpt lat="43.61872" lon="6.9439">
        <ele>144.38189697266</ele>
        <time>2012-12-28T16:57:48Z</time>
      </trkpt>
      <trkpt lat="43.61872" lon="6.94402">
        <ele>144.40936279297</ele>
        <time>2012-12-28T16:57:51Z</time>
      </trkpt>
      <trkpt lat="43.61874" lon="6.94404">
        <ele>144.47802734375</ele>
        <time>2012-12-28T16:57:52Z</time>
      </trkpt>
      <trkpt lat="43.61885" lon="6.9441">
        <ele>144.86254882812</ele>
        <time>2012-12-28T16:57:56Z</time>
      </trkpt>
      <trkpt lat="43.61887" lon="6.94411">
        <ele>144.93121337891</ele>
        <time>2012-12-28T16:57:57Z</time>
      </trkpt>
      <trkpt lat="43.61889" lon="6.94413">
        <ele>144.99987792969</ele>
        <time>2012-12-28T16:57:58Z</time>
      </trkpt>
      <trkpt lat="43.61895" lon="6.94419">
        <ele>144.90560913086</ele>
        <time>2012-12-28T16:58:01Z</time>
      </trkpt>
      <trkpt lat="43.61911" lon="6.94426">
        <ele>144.67901611328</ele>
        <time>2012-12-28T16:58:07Z</time>
      </trkpt>
      <trkpt lat="43.61926" lon="6.94426">
        <ele>144.67385864258</ele>
        <time>2012-12-28T16:58:13Z</time>
      </trkpt>
      <trkpt lat="43.61946" lon="6.94428">
        <ele>144.58631896973</ele>
        <time>2012-12-28T16:58:20Z</time>
      </trkpt>
      <trkpt lat="43.61964" lon="6.94431">
        <ele>144.47817993164</ele>
        <time>2012-12-28T16:58:26Z</time>
      </trkpt>
      <trkpt lat="43.61986" lon="6.94436">
        <ele>144.31338500977</ele>
        <time>2012-12-28T16:58:33Z</time>
      </trkpt>
      <trkpt lat="43.62006" lon="6.94438">
        <ele>144.23785400391</ele>
        <time>2012-12-28T16:58:39Z</time>
      </trkpt>
      <trkpt lat="43.62033" lon="6.94443">
        <ele>144.0696105957</ele>
        <time>2012-12-28T16:58:45Z</time>
      </trkpt>
      <trkpt lat="43.62041" lon="6.94444">
        <ele>144.0129699707</ele>
        <time>2012-12-28T16:58:47Z</time>
      </trkpt>
      <trkpt lat="43.62058" lon="6.94448">
        <ele>143.86706542969</ele>
        <time>2012-12-28T16:58:51Z</time>
      </trkpt>
      <trkpt lat="43.6209" lon="6.94453">
        <ele>143.68167114258</ele>
        <time>2012-12-28T16:58:57Z</time>
      </trkpt>
      <trkpt lat="43.62099" lon="6.94454">
        <ele>143.65420532227</ele>
        <time>2012-12-28T16:58:59Z</time>
      </trkpt>
      <trkpt lat="43.62112" lon="6.94458">
        <ele>143.49455261231</ele>
        <time>2012-12-28T16:59:02Z</time>
      </trkpt>
      <trkpt lat="43.62116" lon="6.94458">
        <ele>143.49969482422</ele>
        <time>2012-12-28T16:59:04Z</time>
      </trkpt>
      <trkpt lat="43.62119" lon="6.94458">
        <ele>143.49627685547</ele>
        <time>2012-12-28T16:59:06Z</time>
      </trkpt>
      <trkpt lat="43.6212" lon="6.94459">
        <ele>143.46365356445</ele>
        <time>2012-12-28T16:59:11Z</time>
      </trkpt>
      <trkpt lat="43.62121" lon="6.9446">
        <ele>143.44821166992</ele>
        <time>2012-12-28T16:59:38Z</time>
      </trkpt>
      <trkpt lat="43.62128" lon="6.94458">
        <ele>143.5065612793</ele>
        <time>2012-12-28T16:59:59Z</time>
      </trkpt>
      <trkpt lat="43.62141" lon="6.94455">
        <ele>143.61471557617</ele>
        <time>2012-12-28T17:00:03Z</time>
      </trkpt>
      <trkpt lat="43.6216" lon="6.94459">
        <ele>143.46365356445</ele>
        <time>2012-12-28T17:00:09Z</time>
      </trkpt>
      <trkpt lat="43.62199" lon="6.94464">
        <ele>143.30229187012</ele>
        <time>2012-12-28T17:00:20Z</time>
      </trkpt>
      <trkpt lat="43.62231" lon="6.94465">
        <ele>144.15762329102</ele>
        <time>2012-12-28T17:00:29Z</time>
      </trkpt>
      <trkpt lat="43.62257" lon="6.94469">
        <ele>149.40496826172</ele>
        <time>2012-12-28T17:00:37Z</time>
      </trkpt>
      <trkpt lat="43.6228" lon="6.94469">
        <ele>159.27670288086</ele>
        <time>2012-12-28T17:00:45Z</time>
      </trkpt>
      <trkpt lat="43.62302" lon="6.94469">
        <ele>160.76123046875</ele>
        <time>2012-12-28T17:00:53Z</time>
      </trkpt>
      <trkpt lat="43.62322" lon="6.94464">
        <ele>161.60046386719</ele>
        <time>2012-12-28T17:01:01Z</time>
      </trkpt>
      <trkpt lat="43.62349" lon="6.94456">
        <ele>162.34092712402</ele>
        <time>2012-12-28T17:01:11Z</time>
      </trkpt>
      <trkpt lat="43.62371" lon="6.94448">
        <ele>163.20988464356</ele>
        <time>2012-12-28T17:01:20Z</time>
      </trkpt>
      <trkpt lat="43.62377" lon="6.94448">
        <ele>163.46394348144</ele>
        <time>2012-12-28T17:01:23Z</time>
      </trkpt>
      <trkpt lat="43.6238" lon="6.94451">
        <ele>163.42617797852</ele>
        <time>2012-12-28T17:01:25Z</time>
      </trkpt>
      <trkpt lat="43.62389" lon="6.94459">
        <ele>163.47595214844</ele>
        <time>2012-12-28T17:01:30Z</time>
      </trkpt>
      <trkpt lat="43.62391" lon="6.9446">
        <ele>163.45794677734</ele>
        <time>2012-12-28T17:01:31Z</time>
      </trkpt>
      <trkpt lat="43.62403" lon="6.9447">
        <ele>163.55549621582</ele>
        <time>2012-12-28T17:01:37Z</time>
      </trkpt>
      <trkpt lat="43.62405" lon="6.94469">
        <ele>163.61889648438</ele>
        <time>2012-12-28T17:01:38Z</time>
      </trkpt>
      <trkpt lat="43.62408" lon="6.94465">
        <ele>163.7712097168</ele>
        <time>2012-12-28T17:01:41Z</time>
      </trkpt>
      <trkpt lat="43.62411" lon="6.94463">
        <ele>163.85433959961</ele>
        <time>2012-12-28T17:01:43Z</time>
      </trkpt>
      <trkpt lat="43.62423" lon="6.94454">
        <ele>164.16091918945</ele>
        <time>2012-12-28T17:01:49Z</time>
      </trkpt>
      <trkpt lat="43.62438" lon="6.94446">
        <ele>164.70866394043</ele>
        <time>2012-12-28T17:01:55Z</time>
      </trkpt>
      <trkpt lat="43.62452" lon="6.94445">
        <ele>165.23971557617</ele>
        <time>2012-12-28T17:02:00Z</time>
      </trkpt>
      <trkpt lat="43.62466" lon="6.94439">
        <ele>166.08670043945</ele>
        <time>2012-12-28T17:02:05Z</time>
      </trkpt>
      <trkpt lat="43.62471" lon="6.94434">
        <ele>166.66674804688</ele>
        <time>2012-12-28T17:02:09Z</time>
      </trkpt>
      <trkpt lat="43.62472" lon="6.94433">
        <ele>166.79833984375</ele>
        <time>2012-12-28T17:02:15Z</time>
      </trkpt>
      <trkpt lat="43.62473" lon="6.94433">
        <ele>166.88174438477</ele>
        <time>2012-12-28T17:02:22Z</time>
      </trkpt>
      <trkpt lat="43.62479" lon="6.94431">
        <ele>167.19760131836</ele>
        <time>2012-12-28T17:02:25Z</time>
      </trkpt>
      <trkpt lat="43.62485" lon="6.94426">
        <ele>167.79841613769</ele>
        <time>2012-12-28T17:02:29Z</time>
      </trkpt>
      <trkpt lat="43.62491" lon="6.94426">
        <ele>167.98037719727</ele>
        <time>2012-12-28T17:02:33Z</time>
      </trkpt>
      <trkpt lat="43.62493" lon="6.94426">
        <ele>168.05247497559</ele>
        <time>2012-12-28T17:02:34Z</time>
      </trkpt>
      <trkpt lat="43.62507" lon="6.94424">
        <ele>168.45416259766</ele>
        <time>2012-12-28T17:02:39Z</time>
      </trkpt>
      <trkpt lat="43.62516" lon="6.94431">
        <ele>167.95291137695</ele>
        <time>2012-12-28T17:02:43Z</time>
      </trkpt>
      <trkpt lat="43.62518" lon="6.94433">
        <ele>167.81558227539</ele>
        <time>2012-12-28T17:02:44Z</time>
      </trkpt>
      <trkpt lat="43.62523" lon="6.94435">
        <ele>167.68168640137</ele>
        <time>2012-12-28T17:02:46Z</time>
      </trkpt>
      <trkpt lat="43.62535" lon="6.94435">
        <ele>168.04940795898</ele>
        <time>2012-12-28T17:02:50Z</time>
      </trkpt>
      <trkpt lat="43.62539" lon="6.94435">
        <ele>168.22315979004</ele>
        <time>2012-12-28T17:02:51Z</time>
      </trkpt>
      <trkpt lat="43.62556" lon="6.94432">
        <ele>169.36056518555</ele>
        <time>2012-12-28T17:02:56Z</time>
      </trkpt>
      <trkpt lat="43.62572" lon="6.9443">
        <ele>170.17251586914</ele>
        <time>2012-12-28T17:03:01Z</time>
      </trkpt>
      <trkpt lat="43.62582" lon="6.9443">
        <ele>170.52613830566</ele>
        <time>2012-12-28T17:03:04Z</time>
      </trkpt>
      <trkpt lat="43.62584" lon="6.94431">
        <ele>170.42657470703</ele>
        <time>2012-12-28T17:03:05Z</time>
      </trkpt>
      <trkpt lat="43.62591" lon="6.94436">
        <ele>170.15020751953</ele>
        <time>2012-12-28T17:03:09Z</time>
      </trkpt>
      <trkpt lat="43.62594" lon="6.94437">
        <ele>170.14334106445</ele>
        <time>2012-12-28T17:03:10Z</time>
      </trkpt>
      <trkpt lat="43.62608" lon="6.94442">
        <ele>170.20684814453</ele>
        <time>2012-12-28T17:03:15Z</time>
      </trkpt>
      <trkpt lat="43.62624" lon="6.94446">
        <ele>170.33807373047</ele>
        <time>2012-12-28T17:03:20Z</time>
      </trkpt>
      <trkpt lat="43.6264" lon="6.94448">
        <ele>170.76379394531</ele>
        <time>2012-12-28T17:03:25Z</time>
      </trkpt>
      <trkpt lat="43.62647" lon="6.94447">
        <ele>171.08308410644</ele>
        <time>2012-12-28T17:03:30Z</time>
      </trkpt>
      <trkpt lat="43.62654" lon="6.94447">
        <ele>171.33027648926</ele>
        <time>2012-12-28T17:03:35Z</time>
      </trkpt>
      <trkpt lat="43.62667" lon="6.94449">
        <ele>171.66114807129</ele>
        <time>2012-12-28T17:03:41Z</time>
      </trkpt>
      <trkpt lat="43.62683" lon="6.94445">
        <ele>173.20610046387</ele>
        <time>2012-12-28T17:03:48Z</time>
      </trkpt>
      <trkpt lat="43.62696" lon="6.94446">
        <ele>173.97958374023</ele>
        <time>2012-12-28T17:03:54Z</time>
      </trkpt>
      <trkpt lat="43.62705" lon="6.94446">
        <ele>174.62309265137</ele>
        <time>2012-12-28T17:04:00Z</time>
      </trkpt>
      <trkpt lat="43.62717" lon="6.94443">
        <ele>175.78540039062</ele>
        <time>2012-12-28T17:04:06Z</time>
      </trkpt>
      <trkpt lat="43.62718" lon="6.94444">
        <ele>175.75451660156</ele>
        <time>2012-12-28T17:04:10Z</time>
      </trkpt>
      <trkpt lat="43.62721" lon="6.94452">
        <ele>175.15933227539</ele>
        <time>2012-12-28T17:04:37Z</time>
      </trkpt>
      <trkpt lat="43.62729" lon="6.94462">
        <ele>174.62326049805</ele>
        <time>2012-12-28T17:04:42Z</time>
      </trkpt>
      <trkpt lat="43.62735" lon="6.9447">
        <ele>174.17178344727</ele>
        <time>2012-12-28T17:04:46Z</time>
      </trkpt>
      <trkpt lat="43.6275" lon="6.94488">
        <ele>173.28421020508</ele>
        <time>2012-12-28T17:04:52Z</time>
      </trkpt>
      <trkpt lat="43.62772" lon="6.94506">
        <ele>171.18041992188</ele>
        <time>2012-12-28T17:04:58Z</time>
      </trkpt>
      <trkpt lat="43.62781" lon="6.94512">
        <ele>170.23284912109</ele>
        <time>2012-12-28T17:05:00Z</time>
      </trkpt>
      <trkpt lat="43.62789" lon="6.94519">
        <ele>169.20974731445</ele>
        <time>2012-12-28T17:05:02Z</time>
      </trkpt>
      <trkpt lat="43.62793" lon="6.94522">
        <ele>168.78402709961</ele>
        <time>2012-12-28T17:05:03Z</time>
      </trkpt>
      <trkpt lat="43.62808" lon="6.94528">
        <ele>167.88243103027</ele>
        <time>2012-12-28T17:05:06Z</time>
      </trkpt>
      <trkpt lat="43.62813" lon="6.9453">
        <ele>167.46701049805</ele>
        <time>2012-12-28T17:05:07Z</time>
      </trkpt>
      <trkpt lat="43.62826" lon="6.94539">
        <ele>166.0439453125</ele>
        <time>2012-12-28T17:05:10Z</time>
      </trkpt>
      <trkpt lat="43.62831" lon="6.94541">
        <ele>165.61650085449</ele>
        <time>2012-12-28T17:05:11Z</time>
      </trkpt>
      <trkpt lat="43.62844" lon="6.94545">
        <ele>165.10064697266</ele>
        <time>2012-12-28T17:05:14Z</time>
      </trkpt>
      <trkpt lat="43.62855" lon="6.94549">
        <ele>164.66290283203</ele>
        <time>2012-12-28T17:05:16Z</time>
      </trkpt>
      <trkpt lat="43.62867" lon="6.94551">
        <ele>164.10002136231</ele>
        <time>2012-12-28T17:05:18Z</time>
      </trkpt>
      <trkpt lat="43.6288" lon="6.94551">
        <ele>163.21072387695</ele>
        <time>2012-12-28T17:05:20Z</time>
      </trkpt>
      <trkpt lat="43.62893" lon="6.94552">
        <ele>162.29196166992</ele>
        <time>2012-12-28T17:05:22Z</time>
      </trkpt>
      <trkpt lat="43.629" lon="6.9455">
        <ele>161.94863891602</ele>
        <time>2012-12-28T17:05:23Z</time>
      </trkpt>
      <trkpt lat="43.62918" lon="6.94545">
        <ele>161.57052612305</ele>
        <time>2012-12-28T17:05:26Z</time>
      </trkpt>
      <trkpt lat="43.62922" lon="6.94544">
        <ele>161.63232421875</ele>
        <time>2012-12-28T17:05:27Z</time>
      </trkpt>
      <trkpt lat="43.6293" lon="6.94552">
        <ele>160.4856262207</ele>
        <time>2012-12-28T17:05:31Z</time>
      </trkpt>
      <trkpt lat="43.62936" lon="6.94561">
        <ele>159.01916503906</ele>
        <time>2012-12-28T17:05:35Z</time>
      </trkpt>
      <trkpt lat="43.62946" lon="6.94571">
        <ele>157.11145019531</ele>
        <time>2012-12-28T17:05:40Z</time>
      </trkpt>
      <trkpt lat="43.62952" lon="6.9458">
        <ele>155.28668212891</ele>
        <time>2012-12-28T17:05:43Z</time>
      </trkpt>
      <trkpt lat="43.62954" lon="6.94583">
        <ele>154.69961547852</ele>
        <time>2012-12-28T17:05:44Z</time>
      </trkpt>
      <trkpt lat="43.62965" lon="6.94595">
        <ele>152.15902709961</ele>
        <time>2012-12-28T17:05:49Z</time>
      </trkpt>
      <trkpt lat="43.62975" lon="6.94601">
        <ele>150.80288696289</ele>
        <time>2012-12-28T17:05:52Z</time>
      </trkpt>
      <trkpt lat="43.62978" lon="6.94605">
        <ele>149.92913818359</ele>
        <time>2012-12-28T17:05:53Z</time>
      </trkpt>
      <trkpt lat="43.62995" lon="6.94629">
        <ele>146.11299133301</ele>
        <time>2012-12-28T17:05:59Z</time>
      </trkpt>
      <trkpt lat="43.63008" lon="6.94633">
        <ele>144.80241394043</ele>
        <time>2012-12-28T17:06:02Z</time>
      </trkpt>
      <trkpt lat="43.63012" lon="6.94633">
        <ele>144.43161010742</ele>
        <time>2012-12-28T17:06:03Z</time>
      </trkpt>
      <trkpt lat="43.63018" lon="6.94632">
        <ele>143.86201477051</ele>
        <time>2012-12-28T17:06:05Z</time>
      </trkpt>
      <trkpt lat="43.63028" lon="6.94632">
        <ele>143.07319641113</ele>
        <time>2012-12-28T17:06:08Z</time>
      </trkpt>
      <trkpt lat="43.63039" lon="6.94634">
        <ele>142.66873168945</ele>
        <time>2012-12-28T17:06:11Z</time>
      </trkpt>
      <trkpt lat="43.63047" lon="6.94633">
        <ele>142.66618347168</ele>
        <time>2012-12-28T17:06:13Z</time>
      </trkpt>
      <trkpt lat="43.63053" lon="6.94634">
        <ele>142.51593017578</ele>
        <time>2012-12-28T17:06:15Z</time>
      </trkpt>
      <trkpt lat="43.63055" lon="6.94636">
        <ele>142.30099487305</ele>
        <time>2012-12-28T17:06:16Z</time>
      </trkpt>
      <trkpt lat="43.63063" lon="6.94646">
        <ele>140.80996704102</ele>
        <time>2012-12-28T17:06:19Z</time>
      </trkpt>
      <trkpt lat="43.63069" lon="6.94653">
        <ele>139.42810058594</ele>
        <time>2012-12-28T17:06:21Z</time>
      </trkpt>
      <trkpt lat="43.63079" lon="6.94658">
        <ele>138.53546142578</ele>
        <time>2012-12-28T17:06:24Z</time>
      </trkpt>
      <trkpt lat="43.63094" lon="6.94663">
        <ele>138.46545410156</ele>
        <time>2012-12-28T17:06:28Z</time>
      </trkpt>
      <trkpt lat="43.63108" lon="6.94666">
        <ele>138.78646850586</ele>
        <time>2012-12-28T17:06:32Z</time>
      </trkpt>
      <trkpt lat="43.63121" lon="6.94665">
        <ele>139.30807495117</ele>
        <time>2012-12-28T17:06:36Z</time>
      </trkpt>
      <trkpt lat="43.63135" lon="6.94658">
        <ele>140.57836914062</ele>
        <time>2012-12-28T17:06:40Z</time>
      </trkpt>
      <trkpt lat="43.63142" lon="6.94663">
        <ele>140.08250427246</ele>
        <time>2012-12-28T17:06:43Z</time>
      </trkpt>
      <trkpt lat="43.63145" lon="6.94674">
        <ele>138.38897705078</ele>
        <time>2012-12-28T17:06:46Z</time>
      </trkpt>
      <trkpt lat="43.63145" lon="6.94676">
        <ele>137.89115905762</ele>
        <time>2012-12-28T17:06:47Z</time>
      </trkpt>
      <trkpt lat="43.63145" lon="6.94694">
        <ele>134.69653320312</ele>
        <time>2012-12-28T17:06:52Z</time>
      </trkpt>
      <trkpt lat="43.63152" lon="6.94713">
        <ele>132.99922180176</ele>
        <time>2012-12-28T17:06:55Z</time>
      </trkpt>
      <trkpt lat="43.63166" lon="6.9474">
        <ele>130.79823303223</ele>
        <time>2012-12-28T17:07:00Z</time>
      </trkpt>
      <trkpt lat="43.63168" lon="6.94745">
        <ele>129.95085144043</ele>
        <time>2012-12-28T17:07:01Z</time>
      </trkpt>
      <trkpt lat="43.63169" lon="6.94756">
        <ele>128.04483032227</ele>
        <time>2012-12-28T17:07:03Z</time>
      </trkpt>
      <trkpt lat="43.6317" lon="6.94775">
        <ele>124.83304595947</ele>
        <time>2012-12-28T17:07:06Z</time>
      </trkpt>
      <trkpt lat="43.6317" lon="6.94797">
        <ele>121.47695922852</ele>
        <time>2012-12-28T17:07:10Z</time>
      </trkpt>
      <trkpt lat="43.63172" lon="6.94802">
        <ele>120.92077636719</ele>
        <time>2012-12-28T17:07:11Z</time>
      </trkpt>
      <trkpt lat="43.63178" lon="6.94812">
        <ele>119.60345458984</ele>
        <time>2012-12-28T17:07:14Z</time>
      </trkpt>
      <trkpt lat="43.63184" lon="6.94819">
        <ele>118.76231384277</ele>
        <time>2012-12-28T17:07:16Z</time>
      </trkpt>
      <trkpt lat="43.63199" lon="6.94845">
        <ele>115.15786743164</ele>
        <time>2012-12-28T17:07:22Z</time>
      </trkpt>
      <trkpt lat="43.63214" lon="6.94862">
        <ele>113.82109069824</ele>
        <time>2012-12-28T17:07:27Z</time>
      </trkpt>
      <trkpt lat="43.63229" lon="6.94866">
        <ele>115.09038543701</ele>
        <time>2012-12-28T17:07:31Z</time>
      </trkpt>
      <trkpt lat="43.63253" lon="6.94873">
        <ele>116.87619018555</ele>
        <time>2012-12-28T17:07:37Z</time>
      </trkpt>
      <trkpt lat="43.63269" lon="6.94877">
        <ele>117.3397064209</ele>
        <time>2012-12-28T17:07:41Z</time>
      </trkpt>
      <trkpt lat="43.63284" lon="6.94878">
        <ele>117.78356933594</ele>
        <time>2012-12-28T17:07:45Z</time>
      </trkpt>
      <trkpt lat="43.63293" lon="6.94879">
        <ele>117.72520446777</ele>
        <time>2012-12-28T17:07:47Z</time>
      </trkpt>
      <trkpt lat="43.63311" lon="6.94878">
        <ele>118.01750183106</ele>
        <time>2012-12-28T17:07:52Z</time>
      </trkpt>
      <trkpt lat="43.63327" lon="6.94885">
        <ele>118.05183410644</ele>
        <time>2012-12-28T17:07:57Z</time>
      </trkpt>
      <trkpt lat="43.63351" lon="6.94884">
        <ele>118.33038330078</ele>
        <time>2012-12-28T17:08:03Z</time>
      </trkpt>
      <trkpt lat="43.63379" lon="6.94883">
        <ele>118.42308044434</ele>
        <time>2012-12-28T17:08:10Z</time>
      </trkpt>
      <trkpt lat="43.63409" lon="6.94891">
        <ele>118.53617095947</ele>
        <time>2012-12-28T17:08:17Z</time>
      </trkpt>
      <trkpt lat="43.63418" lon="6.94894">
        <ele>118.47880554199</ele>
        <time>2012-12-28T17:08:19Z</time>
      </trkpt>
      <trkpt lat="43.63426" lon="6.94907">
        <ele>117.60734558106</ele>
        <time>2012-12-28T17:08:22Z</time>
      </trkpt>
      <trkpt lat="43.63428" lon="6.9492">
        <ele>116.61479949951</ele>
        <time>2012-12-28T17:08:24Z</time>
      </trkpt>
      <trkpt lat="43.63432" lon="6.94941">
        <ele>115.7840423584</ele>
        <time>2012-12-28T17:08:27Z</time>
      </trkpt>
      <trkpt lat="43.6344" lon="6.94968">
        <ele>115.78817749023</ele>
        <time>2012-12-28T17:08:31Z</time>
      </trkpt>
      <trkpt lat="43.63442" lon="6.94974">
        <ele>115.75965118408</ele>
        <time>2012-12-28T17:08:32Z</time>
      </trkpt>
      <trkpt lat="43.63449" lon="6.94989">
        <ele>115.88078308106</ele>
        <time>2012-12-28T17:08:35Z</time>
      </trkpt>
      <trkpt lat="43.63449" lon="6.94995">
        <ele>115.71255493164</ele>
        <time>2012-12-28T17:08:36Z</time>
      </trkpt>
      <trkpt lat="43.63445" lon="6.95013">
        <ele>115.07598114014</ele>
        <time>2012-12-28T17:08:39Z</time>
      </trkpt>
      <trkpt lat="43.63443" lon="6.9502">
        <ele>114.92297363281</ele>
        <time>2012-12-28T17:08:40Z</time>
      </trkpt>
      <trkpt lat="43.63435" lon="6.95052">
        <ele>113.45860290527</ele>
        <time>2012-12-28T17:08:44Z</time>
      </trkpt>
      <trkpt lat="43.63417" lon="6.95112">
        <ele>110.9755935669</ele>
        <time>2012-12-28T17:08:51Z</time>
      </trkpt>
      <trkpt lat="43.63406" lon="6.9514">
        <ele>109.57621002197</ele>
        <time>2012-12-28T17:08:55Z</time>
      </trkpt>
      <trkpt lat="43.63404" lon="6.95147">
        <ele>109.37683105469</ele>
        <time>2012-12-28T17:08:56Z</time>
      </trkpt>
      <trkpt lat="43.63401" lon="6.95161">
        <ele>109.09353637695</ele>
        <time>2012-12-28T17:08:58Z</time>
      </trkpt>
      <trkpt lat="43.63399" lon="6.95175">
        <ele>108.81098937988</ele>
        <time>2012-12-28T17:09:00Z</time>
      </trkpt>
      <trkpt lat="43.63398" lon="6.95183">
        <ele>108.6229019165</ele>
        <time>2012-12-28T17:09:01Z</time>
      </trkpt>
      <trkpt lat="43.63388" lon="6.95208">
        <ele>107.9404296875</ele>
        <time>2012-12-28T17:09:05Z</time>
      </trkpt>
      <trkpt lat="43.63384" lon="6.95214">
        <ele>107.66577148438</ele>
        <time>2012-12-28T17:09:06Z</time>
      </trkpt>
      <trkpt lat="43.6336" lon="6.95257">
        <ele>105.70498657227</ele>
        <time>2012-12-28T17:09:13Z</time>
      </trkpt>
      <trkpt lat="43.63343" lon="6.95298">
        <ele>104.33599853516</ele>
        <time>2012-12-28T17:09:19Z</time>
      </trkpt>
      <trkpt lat="43.63328" lon="6.95334">
        <ele>105.4684753418</ele>
        <time>2012-12-28T17:09:24Z</time>
      </trkpt>
      <trkpt lat="43.63301" lon="6.95398">
        <ele>115.83039855957</ele>
        <time>2012-12-28T17:09:33Z</time>
      </trkpt>
      <trkpt lat="43.63272" lon="6.95468">
        <ele>117.80914306641</ele>
        <time>2012-12-28T17:09:43Z</time>
      </trkpt>
      <trkpt lat="43.6325" lon="6.95524">
        <ele>116.99984741211</ele>
        <time>2012-12-28T17:09:50Z</time>
      </trkpt>
      <trkpt lat="43.63222" lon="6.95593">
        <ele>116.98266601562</ele>
        <time>2012-12-28T17:09:58Z</time>
      </trkpt>
      <trkpt lat="43.63218" lon="6.95602">
        <ele>116.84533691406</ele>
        <time>2012-12-28T17:09:59Z</time>
      </trkpt>
      <trkpt lat="43.63189" lon="6.95674">
        <ele>116.84418487549</ele>
        <time>2012-12-28T17:10:07Z</time>
      </trkpt>
      <trkpt lat="43.63177" lon="6.957">
        <ele>117</ele>
        <time>2012-12-28T17:10:10Z</time>
      </trkpt>
      <trkpt lat="43.63158" lon="6.95727">
        <ele>116.68927001953</ele>
        <time>2012-12-28T17:10:14Z</time>
      </trkpt>
      <trkpt lat="43.63152" lon="6.95731">
        <ele>116.46954345703</ele>
        <time>2012-12-28T17:10:15Z</time>
      </trkpt>
      <trkpt lat="43.63134" lon="6.95742">
        <ele>116</ele>
        <time>2012-12-28T17:10:18Z</time>
      </trkpt>
      <trkpt lat="43.63128" lon="6.95765">
        <ele>116.34267425537</ele>
        <time>2012-12-28T17:10:21Z</time>
      </trkpt>
      <trkpt lat="43.63128" lon="6.95791">
        <ele>116.59063720703</ele>
        <time>2012-12-28T17:10:24Z</time>
      </trkpt>
      <trkpt lat="43.63116" lon="6.95812">
        <ele>116.38214111328</ele>
        <time>2012-12-28T17:10:27Z</time>
      </trkpt>
      <trkpt lat="43.63103" lon="6.95829">
        <ele>116.59240722656</ele>
        <time>2012-12-28T17:10:30Z</time>
      </trkpt>
      <trkpt lat="43.63093" lon="6.95837">
        <ele>116.43701934815</ele>
        <time>2012-12-28T17:10:32Z</time>
      </trkpt>
      <trkpt lat="43.63059" lon="6.95859">
        <ele>116.12034606934</ele>
        <time>2012-12-28T17:10:39Z</time>
      </trkpt>
      <trkpt lat="43.63029" lon="6.9587">
        <ele>116</ele>
        <time>2012-12-28T17:10:45Z</time>
      </trkpt>
      <trkpt lat="43.62982" lon="6.95884">
        <ele>118.65533447266</ele>
        <time>2012-12-28T17:10:54Z</time>
      </trkpt>
      <trkpt lat="43.62936" lon="6.95897">
        <ele>121.29925537109</ele>
        <time>2012-12-28T17:11:03Z</time>
      </trkpt>
      <trkpt lat="43.62921" lon="6.959">
        <ele>122.85717010498</ele>
        <time>2012-12-28T17:11:06Z</time>
      </trkpt>
      <trkpt lat="43.6291" lon="6.95903">
        <ele>123.63510894775</ele>
        <time>2012-12-28T17:11:08Z</time>
      </trkpt>
      <trkpt lat="43.62878" lon="6.95912">
        <ele>125.19885253906</ele>
        <time>2012-12-28T17:11:14Z</time>
      </trkpt>
      <trkpt lat="43.62829" lon="6.95926">
        <ele>127.49178314209</ele>
        <time>2012-12-28T17:11:23Z</time>
      </trkpt>
      <trkpt lat="43.62798" lon="6.95942">
        <ele>129.07978820801</ele>
        <time>2012-12-28T17:11:29Z</time>
      </trkpt>
      <trkpt lat="43.62783" lon="6.95951">
        <ele>128.82308959961</ele>
        <time>2012-12-28T17:11:32Z</time>
      </trkpt>
      <trkpt lat="43.62778" lon="6.9595">
        <ele>128.40080261231</ele>
        <time>2012-12-28T17:11:33Z</time>
      </trkpt>
      <trkpt lat="43.62758" lon="6.95934">
        <ele>126.15132904053</ele>
        <time>2012-12-28T17:11:37Z</time>
      </trkpt>
      <trkpt lat="43.62751" lon="6.95913">
        <ele>123.79404449463</ele>
        <time>2012-12-28T17:11:40Z</time>
      </trkpt>
      <trkpt lat="43.62756" lon="6.95892">
        <ele>122.27297973633</ele>
        <time>2012-12-28T17:11:43Z</time>
      </trkpt>
      <trkpt lat="43.62763" lon="6.95875">
        <ele>120.98805236816</ele>
        <time>2012-12-28T17:11:46Z</time>
      </trkpt>
      <trkpt lat="43.62772" lon="6.95857">
        <ele>119.8674621582</ele>
        <time>2012-12-28T17:11:49Z</time>
      </trkpt>
      <trkpt lat="43.62775" lon="6.95826">
        <ele>118.72248077393</ele>
        <time>2012-12-28T17:11:53Z</time>
      </trkpt>
      <trkpt lat="43.62775" lon="6.95816">
        <ele>118.39117431641</ele>
        <time>2012-12-28T17:11:54Z</time>
      </trkpt>
      <trkpt lat="43.62774" lon="6.95795">
        <ele>117.6083984375</ele>
        <time>2012-12-28T17:11:56Z</time>
      </trkpt>
      <trkpt lat="43.62772" lon="6.95783">
        <ele>117.19812774658</ele>
        <time>2012-12-28T17:11:57Z</time>
      </trkpt>
      <trkpt lat="43.62768" lon="6.95756">
        <ele>116.49620819092</ele>
        <time>2012-12-28T17:11:59Z</time>
      </trkpt>
      <trkpt lat="43.62767" lon="6.95741">
        <ele>116.25595855713</ele>
        <time>2012-12-28T17:12:00Z</time>
      </trkpt>
      <trkpt lat="43.62767" lon="6.95686">
        <ele>114.69451904297</ele>
        <time>2012-12-28T17:12:04Z</time>
      </trkpt>
      <trkpt lat="43.62767" lon="6.95662">
        <ele>114</ele>
        <time>2012-12-28T17:12:07Z</time>
      </trkpt>
      <trkpt lat="43.62767" lon="6.9565">
        <ele>114</ele>
        <time>2012-12-28T17:12:09Z</time>
      </trkpt>
      <trkpt lat="43.62762" lon="6.95644">
        <ele>114</ele>
        <time>2012-12-28T17:12:11Z</time>
      </trkpt>
      <trkpt lat="43.6275" lon="6.95644">
        <ele>114</ele>
        <time>2012-12-28T17:12:14Z</time>
      </trkpt>
      <trkpt lat="43.62742" lon="6.95645">
        <ele>114</ele>
        <time>2012-12-28T17:12:16Z</time>
      </trkpt>
      <trkpt lat="43.62712" lon="6.95648">
        <ele>114</ele>
        <time>2012-12-28T17:12:23Z</time>
      </trkpt>
      <trkpt lat="43.62709" lon="6.95646">
        <ele>114</ele>
        <time>2012-12-28T17:12:24Z</time>
      </trkpt>
      <trkpt lat="43.62704" lon="6.95632">
        <ele>113.73929595947</ele>
        <time>2012-12-28T17:12:27Z</time>
      </trkpt>
      <trkpt lat="43.62704" lon="6.95625">
        <ele>113.50583648682</ele>
        <time>2012-12-28T17:12:28Z</time>
      </trkpt>
      <trkpt lat="43.627" lon="6.95589">
        <ele>112.21494293213</ele>
        <time>2012-12-28T17:12:33Z</time>
      </trkpt>
      <trkpt lat="43.62696" lon="6.9553">
        <ele>110.07604217529</ele>
        <time>2012-12-28T17:12:41Z</time>
      </trkpt>
      <trkpt lat="43.62693" lon="6.9549">
        <ele>108.64954376221</ele>
        <time>2012-12-28T17:12:47Z</time>
      </trkpt>
      <trkpt lat="43.62692" lon="6.95478">
        <ele>108.27679443359</ele>
        <time>2012-12-28T17:12:49Z</time>
      </trkpt>
      <trkpt lat="43.6269" lon="6.95462">
        <ele>107.79946136475</ele>
        <time>2012-12-28T17:12:52Z</time>
      </trkpt>
      <trkpt lat="43.62682" lon="6.95449">
        <ele>107.60891723633</ele>
        <time>2012-12-28T17:12:56Z</time>
      </trkpt>
      <trkpt lat="43.6268" lon="6.95444">
        <ele>107.48875427246</ele>
        <time>2012-12-28T17:12:58Z</time>
      </trkpt>
      <trkpt lat="43.6268" lon="6.95442">
        <ele>107.40635681152</ele>
        <time>2012-12-28T17:12:59Z</time>
      </trkpt>
      <trkpt lat="43.6268" lon="6.95441">
        <ele>107.37030792236</ele>
        <time>2012-12-28T17:13:00Z</time>
      </trkpt>
      <trkpt lat="43.62676" lon="6.95433">
        <ele>107.25186157227</ele>
        <time>2012-12-28T17:13:08Z</time>
      </trkpt>
      <trkpt lat="43.62672" lon="6.95422">
        <ele>107.02355194092</ele>
        <time>2012-12-28T17:13:13Z</time>
      </trkpt>
      <trkpt lat="43.62672" lon="6.95418">
        <ele>106.87420654297</ele>
        <time>2012-12-28T17:13:15Z</time>
      </trkpt>
      <trkpt lat="43.62674" lon="6.95411">
        <ele>106.59603118897</ele>
        <time>2012-12-28T17:13:18Z</time>
      </trkpt>
      <trkpt lat="43.62672" lon="6.95397">
        <ele>106.21774291992</ele>
        <time>2012-12-28T17:13:22Z</time>
      </trkpt>
      <trkpt lat="43.62662" lon="6.95385">
        <ele>105.87641906738</ele>
        <time>2012-12-28T17:13:26Z</time>
      </trkpt>
      <trkpt lat="43.62659" lon="6.95383">
        <ele>105.79917144775</ele>
        <time>2012-12-28T17:13:27Z</time>
      </trkpt>
      <trkpt lat="43.62645" lon="6.95371">
        <ele>105.35971832275</ele>
        <time>2012-12-28T17:13:33Z</time>
      </trkpt>
      <trkpt lat="43.6263" lon="6.95361">
        <ele>105.01124572754</ele>
        <time>2012-12-28T17:13:39Z</time>
      </trkpt>
      <trkpt lat="43.62616" lon="6.95351">
        <ele>104.65075683594</ele>
        <time>2012-12-28T17:13:45Z</time>
      </trkpt>
      <trkpt lat="43.62612" lon="6.9535">
        <ele>104.58724212647</ele>
        <time>2012-12-28T17:13:47Z</time>
      </trkpt>
      <trkpt lat="43.62606" lon="6.95349">
        <ele>104.1198425293</ele>
        <time>2012-12-28T17:13:49Z</time>
      </trkpt>
      <trkpt lat="43.62593" lon="6.95344">
        <ele>102.84264373779</ele>
        <time>2012-12-28T17:13:54Z</time>
      </trkpt>
      <trkpt lat="43.62575" lon="6.95338">
        <ele>102.0531539917</ele>
        <time>2012-12-28T17:14:01Z</time>
      </trkpt>
      <trkpt lat="43.62557" lon="6.95331">
        <ele>102</ele>
        <time>2012-12-28T17:14:08Z</time>
      </trkpt>
      <trkpt lat="43.62534" lon="6.95324">
        <ele>105.05615234375</ele>
        <time>2012-12-28T17:14:16Z</time>
      </trkpt>
      <trkpt lat="43.62512" lon="6.95322">
        <ele>106.33679199219</ele>
        <time>2012-12-28T17:14:23Z</time>
      </trkpt>
      <trkpt lat="43.62492" lon="6.95321">
        <ele>106.55212402344</ele>
        <time>2012-12-28T17:14:29Z</time>
      </trkpt>
      <trkpt lat="43.6247" lon="6.95322">
        <ele>106.53823852539</ele>
        <time>2012-12-28T17:14:35Z</time>
      </trkpt>
      <trkpt lat="43.62449" lon="6.95323">
        <ele>106.09809875488</ele>
        <time>2012-12-28T17:14:40Z</time>
      </trkpt>
      <trkpt lat="43.62434" lon="6.95322">
        <ele>105.4875869751</ele>
        <time>2012-12-28T17:14:44Z</time>
      </trkpt>
      <trkpt lat="43.62414" lon="6.95319">
        <ele>104.54468536377</ele>
        <time>2012-12-28T17:14:49Z</time>
      </trkpt>
      <trkpt lat="43.62402" lon="6.95316">
        <ele>104.70240783691</ele>
        <time>2012-12-28T17:14:53Z</time>
      </trkpt>
      <trkpt lat="43.62386" lon="6.95313">
        <ele>105</ele>
        <time>2012-12-28T17:14:58Z</time>
      </trkpt>
      <trkpt lat="43.62368" lon="6.95311">
        <ele>105</ele>
        <time>2012-12-28T17:15:02Z</time>
      </trkpt>
      <trkpt lat="43.62352" lon="6.95312">
        <ele>105.07476806641</ele>
        <time>2012-12-28T17:15:07Z</time>
      </trkpt>
      <trkpt lat="43.6235" lon="6.95324">
        <ele>105.27685546875</ele>
        <time>2012-12-28T17:15:10Z</time>
      </trkpt>
      <trkpt lat="43.62345" lon="6.95345">
        <ele>105.74830627441</ele>
        <time>2012-12-28T17:15:14Z</time>
      </trkpt>
      <trkpt lat="43.62338" lon="6.95379">
        <ele>106.64810943603</ele>
        <time>2012-12-28T17:15:20Z</time>
      </trkpt>
      <trkpt lat="43.62335" lon="6.95389">
        <ele>107.01122283935</ele>
        <time>2012-12-28T17:15:22Z</time>
      </trkpt>
      <trkpt lat="43.6233" lon="6.95411">
        <ele>107.91968536377</ele>
        <time>2012-12-28T17:15:26Z</time>
      </trkpt>
      <trkpt lat="43.62327" lon="6.95421">
        <ele>108.27039337158</ele>
        <time>2012-12-28T17:15:28Z</time>
      </trkpt>
      <trkpt lat="43.62323" lon="6.95436">
        <ele>108.63487243652</ele>
        <time>2012-12-28T17:15:31Z</time>
      </trkpt>
      <trkpt lat="43.62317" lon="6.95457">
        <ele>109.36782836914</ele>
        <time>2012-12-28T17:15:35Z</time>
      </trkpt>
      <trkpt lat="43.62313" lon="6.95472">
        <ele>109.74351501465</ele>
        <time>2012-12-28T17:15:38Z</time>
      </trkpt>
      <trkpt lat="43.62314" lon="6.95484">
        <ele>110.14348602295</ele>
        <time>2012-12-28T17:15:40Z</time>
      </trkpt>
      <trkpt lat="43.62316" lon="6.95498">
        <ele>110.54002380371</ele>
        <time>2012-12-28T17:15:42Z</time>
      </trkpt>
      <trkpt lat="43.62318" lon="6.95519">
        <ele>110.56433105469</ele>
        <time>2012-12-28T17:15:46Z</time>
      </trkpt>
      <trkpt lat="43.62317" lon="6.95523">
        <ele>110.60552978516</ele>
        <time>2012-12-28T17:15:47Z</time>
      </trkpt>
      <trkpt lat="43.62307" lon="6.95529">
        <ele>111.00429534912</ele>
        <time>2012-12-28T17:15:50Z</time>
      </trkpt>
      <trkpt lat="43.62302" lon="6.95532">
        <ele>111.3805847168</ele>
        <time>2012-12-28T17:15:51Z</time>
      </trkpt>
      <trkpt lat="43.62289" lon="6.95541">
        <ele>112.67834472656</ele>
        <time>2012-12-28T17:15:55Z</time>
      </trkpt>
      <trkpt lat="43.62287" lon="6.95542">
        <ele>112.86717224121</ele>
        <time>2012-12-28T17:15:57Z</time>
      </trkpt>
      <trkpt lat="43.62285" lon="6.95542">
        <ele>112.98046875</ele>
        <time>2012-12-28T17:15:59Z</time>
      </trkpt>
      <trkpt lat="43.62284" lon="6.95542">
        <ele>113.07144927978</ele>
        <time>2012-12-28T17:16:00Z</time>
      </trkpt>
      <trkpt lat="43.62281" lon="6.95539">
        <ele>113.17272949219</ele>
        <time>2012-12-28T17:16:02Z</time>
      </trkpt>
      <trkpt lat="43.62278" lon="6.95531">
        <ele>113.13668060303</ele>
        <time>2012-12-28T17:16:04Z</time>
      </trkpt>
      <trkpt lat="43.62273" lon="6.9552">
        <ele>113.34216308594</ele>
        <time>2012-12-28T17:16:06Z</time>
      </trkpt>
      <trkpt lat="43.62255" lon="6.95484">
        <ele>114.60559082031</ele>
        <time>2012-12-28T17:16:12Z</time>
      </trkpt>
      <trkpt lat="43.62225" lon="6.95439">
        <ele>115.775390625</ele>
        <time>2012-12-28T17:16:19Z</time>
      </trkpt>
      <trkpt lat="43.62187" lon="6.9538">
        <ele>115.56779479981</ele>
        <time>2012-12-28T17:16:27Z</time>
      </trkpt>
      <trkpt lat="43.62154" lon="6.95338">
        <ele>104.35400390625</ele>
        <time>2012-12-28T17:16:33Z</time>
      </trkpt>
      <trkpt lat="43.62121" lon="6.95312">
        <ele>100</ele>
        <time>2012-12-28T17:16:38Z</time>
      </trkpt>
      <trkpt lat="43.62075" lon="6.95279">
        <ele>100</ele>
        <time>2012-12-28T17:16:45Z</time>
      </trkpt>
      <trkpt lat="43.62063" lon="6.95267">
        <ele>100</ele>
        <time>2012-12-28T17:16:47Z</time>
      </trkpt>
      <trkpt lat="43.62053" lon="6.95252">
        <ele>100</ele>
        <time>2012-12-28T17:16:49Z</time>
      </trkpt>
      <trkpt lat="43.6204" lon="6.95226">
        <ele>100</ele>
        <time>2012-12-28T17:16:52Z</time>
      </trkpt>
      <trkpt lat="43.62036" lon="6.95205">
        <ele>100</ele>
        <time>2012-12-28T17:16:54Z</time>
      </trkpt>
      <trkpt lat="43.62035" lon="6.95184">
        <ele>100</ele>
        <time>2012-12-28T17:16:56Z</time>
      </trkpt>
      <trkpt lat="43.62037" lon="6.95153">
        <ele>100</ele>
        <time>2012-12-28T17:16:59Z</time>
      </trkpt>
      <trkpt lat="43.6204" lon="6.95093">
        <ele>102.54235076904</ele>
        <time>2012-12-28T17:17:05Z</time>
      </trkpt>
      <trkpt lat="43.62038" lon="6.95083">
        <ele>102.60140991211</ele>
        <time>2012-12-28T17:17:06Z</time>
      </trkpt>
      <trkpt lat="43.62028" lon="6.95058">
        <ele>100.13259124756</ele>
        <time>2012-12-28T17:17:09Z</time>
      </trkpt>
      <trkpt lat="43.62018" lon="6.9503">
        <ele>99.6416015625</ele>
        <time>2012-12-28T17:17:12Z</time>
      </trkpt>
      <trkpt lat="43.62012" lon="6.95012">
        <ele>99.435607910156</ele>
        <time>2012-12-28T17:17:14Z</time>
      </trkpt>
      <trkpt lat="43.61999" lon="6.94947">
        <ele>98.82511138916</ele>
        <time>2012-12-28T17:17:21Z</time>
      </trkpt>
      <trkpt lat="43.61993" lon="6.9492">
        <ele>100.43939208984</ele>
        <time>2012-12-28T17:17:24Z</time>
      </trkpt>
      <trkpt lat="43.6199" lon="6.94912">
        <ele>100.49630737305</ele>
        <time>2012-12-28T17:17:25Z</time>
      </trkpt>
      <trkpt lat="43.61963" lon="6.94855">
        <ele>97.990615844727</ele>
        <time>2012-12-28T17:17:32Z</time>
      </trkpt>
      <trkpt lat="43.6195" lon="6.94829">
        <ele>93.533157348633</ele>
        <time>2012-12-28T17:17:35Z</time>
      </trkpt>
      <trkpt lat="43.61936" lon="6.94816">
        <ele>89.074729919434</ele>
        <time>2012-12-28T17:17:37Z</time>
      </trkpt>
      <trkpt lat="43.61918" lon="6.94815">
        <ele>85.924011230469</ele>
        <time>2012-12-28T17:17:39Z</time>
      </trkpt>
      <trkpt lat="43.619" lon="6.9482">
        <ele>83.016799926758</ele>
        <time>2012-12-28T17:17:41Z</time>
      </trkpt>
      <trkpt lat="43.61882" lon="6.94826">
        <ele>80.357856750488</ele>
        <time>2012-12-28T17:17:43Z</time>
      </trkpt>
      <trkpt lat="43.61876" lon="6.94831">
        <ele>79.636672973633</ele>
        <time>2012-12-28T17:17:44Z</time>
      </trkpt>
      <trkpt lat="43.61871" lon="6.94839">
        <ele>78.744010925293</ele>
        <time>2012-12-28T17:17:45Z</time>
      </trkpt>
      <trkpt lat="43.61865" lon="6.94862">
        <ele>76.630073547363</ele>
        <time>2012-12-28T17:17:47Z</time>
      </trkpt>
      <trkpt lat="43.61862" lon="6.94889">
        <ele>75.134902954102</ele>
        <time>2012-12-28T17:17:49Z</time>
      </trkpt>
      <trkpt lat="43.61859" lon="6.94918">
        <ele>73.71484375</ele>
        <time>2012-12-28T17:17:51Z</time>
      </trkpt>
      <trkpt lat="43.61853" lon="6.94962">
        <ele>74.820434570312</ele>
        <time>2012-12-28T17:17:54Z</time>
      </trkpt>
      <trkpt lat="43.61845" lon="6.9499">
        <ele>76.972297668457</ele>
        <time>2012-12-28T17:17:56Z</time>
      </trkpt>
      <trkpt lat="43.61828" lon="6.9502">
        <ele>78.20027923584</ele>
        <time>2012-12-28T17:17:59Z</time>
      </trkpt>
      <trkpt lat="43.61794" lon="6.95058">
        <ele>72.509239196777</ele>
        <time>2012-12-28T17:18:04Z</time>
      </trkpt>
      <trkpt lat="43.61721" lon="6.95135">
        <ele>60.686382293701</ele>
        <time>2012-12-28T17:18:15Z</time>
      </trkpt>
      <trkpt lat="43.61715" lon="6.95142">
        <ele>61.009086608887</ele>
        <time>2012-12-28T17:18:16Z</time>
      </trkpt>
      <trkpt lat="43.61699" lon="6.95171">
        <ele>63.164100646973</ele>
        <time>2012-12-28T17:18:20Z</time>
      </trkpt>
      <trkpt lat="43.61697" lon="6.95172">
        <ele>63.201900482178</ele>
        <time>2012-12-28T17:18:21Z</time>
      </trkpt>
      <trkpt lat="43.61696" lon="6.95173">
        <ele>63.229106903076</ele>
        <time>2012-12-28T17:18:22Z</time>
      </trkpt>
      <trkpt lat="43.61695" lon="6.95172">
        <ele>63.194705963135</ele>
        <time>2012-12-28T17:18:27Z</time>
      </trkpt>
      <trkpt lat="43.61705" lon="6.9518">
        <ele>63.666236877441</ele>
        <time>2012-12-28T17:18:54Z</time>
      </trkpt>
      <trkpt lat="43.61707" lon="6.95199">
        <ele>64.87752532959</ele>
        <time>2012-12-28T17:18:59Z</time>
      </trkpt>
      <trkpt lat="43.61711" lon="6.95221">
        <ele>66.893371582031</ele>
        <time>2012-12-28T17:19:04Z</time>
      </trkpt>
      <trkpt lat="43.61707" lon="6.95224">
        <ele>67.124496459961</ele>
        <time>2012-12-28T17:19:06Z</time>
      </trkpt>
      <trkpt lat="43.61699" lon="6.95217">
        <ele>66.443511962891</ele>
        <time>2012-12-28T17:19:09Z</time>
      </trkpt>
      <trkpt lat="43.61697" lon="6.95214">
        <ele>66.153762817383</ele>
        <time>2012-12-28T17:19:10Z</time>
      </trkpt>
      <trkpt lat="43.61672" lon="6.95201">
        <ele>65.316963195801</ele>
        <time>2012-12-28T17:19:18Z</time>
      </trkpt>
      <trkpt lat="43.61651" lon="6.9519">
        <ele>65.89527130127</ele>
        <time>2012-12-28T17:19:25Z</time>
      </trkpt>
      <trkpt lat="43.61623" lon="6.95175">
        <ele>72.391952514648</ele>
        <time>2012-12-28T17:19:34Z</time>
      </trkpt>
      <trkpt lat="43.61606" lon="6.95165">
        <ele>76.780151367188</ele>
        <time>2012-12-28T17:19:40Z</time>
      </trkpt>
      <trkpt lat="43.61587" lon="6.95147">
        <ele>77.77417755127</ele>
        <time>2012-12-28T17:19:47Z</time>
      </trkpt>
      <trkpt lat="43.61573" lon="6.95131">
        <ele>77.327049255371</ele>
        <time>2012-12-28T17:19:53Z</time>
      </trkpt>
      <trkpt lat="43.6157" lon="6.95131">
        <ele>77.959678649902</ele>
        <time>2012-12-28T17:19:54Z</time>
      </trkpt>
      <trkpt lat="43.61565" lon="6.95136">
        <ele>79.709053039551</ele>
        <time>2012-12-28T17:19:56Z</time>
      </trkpt>
      <trkpt lat="43.61564" lon="6.95152">
        <ele>84.264877319336</ele>
        <time>2012-12-28T17:20:00Z</time>
      </trkpt>
      <trkpt lat="43.61574" lon="6.95167">
        <ele>85.055397033691</ele>
        <time>2012-12-28T17:20:04Z</time>
      </trkpt>
      <trkpt lat="43.6159" lon="6.95188">
        <ele>82.519866943359</ele>
        <time>2012-12-28T17:20:10Z</time>
      </trkpt>
      <trkpt lat="43.61613" lon="6.95221">
        <ele>79.941062927246</ele>
        <time>2012-12-28T17:20:19Z</time>
      </trkpt>
      <trkpt lat="43.61623" lon="6.95241">
        <ele>76.654716491699</ele>
        <time>2012-12-28T17:20:25Z</time>
      </trkpt>
      <trkpt lat="43.6164" lon="6.95277">
        <ele>72.871658325195</ele>
        <time>2012-12-28T17:20:35Z</time>
      </trkpt>
      <trkpt lat="43.61654" lon="6.95314">
        <ele>74.414810180664</ele>
        <time>2012-12-28T17:20:44Z</time>
      </trkpt>
      <trkpt lat="43.61658" lon="6.95347">
        <ele>76.325088500977</ele>
        <time>2012-12-28T17:20:52Z</time>
      </trkpt>
      <trkpt lat="43.61655" lon="6.95377">
        <ele>78.883270263672</ele>
        <time>2012-12-28T17:20:59Z</time>
      </trkpt>
      <trkpt lat="43.61651" lon="6.95413">
        <ele>80</ele>
        <time>2012-12-28T17:21:07Z</time>
      </trkpt>
      <trkpt lat="43.61646" lon="6.95433">
        <ele>80</ele>
        <time>2012-12-28T17:21:12Z</time>
      </trkpt>
      <trkpt lat="43.61639" lon="6.95454">
        <ele>80.327743530273</ele>
        <time>2012-12-28T17:21:18Z</time>
      </trkpt>
      <trkpt lat="43.61635" lon="6.95474">
        <ele>81.265014648438</ele>
        <time>2012-12-28T17:21:25Z</time>
      </trkpt>
      <trkpt lat="43.61623" lon="6.95494">
        <ele>82.143920898438</ele>
        <time>2012-12-28T17:21:33Z</time>
      </trkpt>
      <trkpt lat="43.61613" lon="6.95507">
        <ele>82.625450134277</ele>
        <time>2012-12-28T17:21:39Z</time>
      </trkpt>
      <trkpt lat="43.61603" lon="6.95517">
        <ele>83.631530761719</ele>
        <time>2012-12-28T17:21:45Z</time>
      </trkpt>
      <trkpt lat="43.61591" lon="6.95528">
        <ele>84.90714263916</ele>
        <time>2012-12-28T17:21:52Z</time>
      </trkpt>
      <trkpt lat="43.61588" lon="6.95528">
        <ele>85.360633850098</ele>
        <time>2012-12-28T17:21:54Z</time>
      </trkpt>
      <trkpt lat="43.61586" lon="6.95528">
        <ele>85.686622619629</ele>
        <time>2012-12-28T17:21:56Z</time>
      </trkpt>
      <trkpt lat="43.61583" lon="6.95533">
        <ele>85.598754882812</ele>
        <time>2012-12-28T17:22:01Z</time>
      </trkpt>
      <trkpt lat="43.61583" lon="6.95537">
        <ele>85.554122924805</ele>
        <time>2012-12-28T17:22:09Z</time>
      </trkpt>
      <trkpt lat="43.61582" lon="6.95541">
        <ele>85.485458374023</ele>
        <time>2012-12-28T17:22:12Z</time>
      </trkpt>
      <trkpt lat="43.61582" lon="6.95542">
        <ele>85.447692871094</ele>
        <time>2012-12-28T17:22:13Z</time>
      </trkpt>
      <trkpt lat="43.61581" lon="6.95543">
        <ele>85.478591918945</ele>
        <time>2012-12-28T17:22:19Z</time>
      </trkpt>
      <trkpt lat="43.61578" lon="6.95548">
        <ele>86.000442504883</ele>
        <time>2012-12-28T17:22:24Z</time>
      </trkpt>
      <trkpt lat="43.61573" lon="6.9556">
        <ele>86.850028991699</ele>
        <time>2012-12-28T17:22:29Z</time>
      </trkpt>
      <trkpt lat="43.61568" lon="6.95578">
        <ele>87.03980255127</ele>
        <time>2012-12-28T17:22:33Z</time>
      </trkpt>
      <trkpt lat="43.6156" lon="6.95596">
        <ele>88.010185241699</ele>
        <time>2012-12-28T17:22:37Z</time>
      </trkpt>
      <trkpt lat="43.61553" lon="6.95618">
        <ele>87.946319580078</ele>
        <time>2012-12-28T17:22:42Z</time>
      </trkpt>
      <trkpt lat="43.61551" lon="6.95623">
        <ele>87.963241577148</ele>
        <time>2012-12-28T17:22:45Z</time>
      </trkpt>
      <trkpt lat="43.61551" lon="6.95626">
        <ele>87.799102783203</ele>
        <time>2012-12-28T17:22:46Z</time>
      </trkpt>
      <trkpt lat="43.61548" lon="6.95634">
        <ele>87.69019317627</ele>
        <time>2012-12-28T17:22:49Z</time>
      </trkpt>
      <trkpt lat="43.61547" lon="6.95635">
        <ele>87.709327697754</ele>
        <time>2012-12-28T17:22:50Z</time>
      </trkpt>
      <trkpt lat="43.61546" lon="6.95645">
        <ele>87.59986114502</ele>
        <time>2012-12-28T17:22:55Z</time>
      </trkpt>
      <trkpt lat="43.61541" lon="6.9566">
        <ele>87.934593200684</ele>
        <time>2012-12-28T17:23:00Z</time>
      </trkpt>
      <trkpt lat="43.61542" lon="6.95663">
        <ele>87.670722961426</ele>
        <time>2012-12-28T17:23:01Z</time>
      </trkpt>
      <trkpt lat="43.61541" lon="6.95673">
        <ele>87.455360412598</ele>
        <time>2012-12-28T17:23:04Z</time>
      </trkpt>
      <trkpt lat="43.61541" lon="6.95685">
        <ele>87.302909851074</ele>
        <time>2012-12-28T17:23:08Z</time>
      </trkpt>
      <trkpt lat="43.61539" lon="6.957">
        <ele>87.309959411621</ele>
        <time>2012-12-28T17:23:12Z</time>
      </trkpt>
      <trkpt lat="43.61535" lon="6.95721">
        <ele>87.278137207031</ele>
        <time>2012-12-28T17:23:17Z</time>
      </trkpt>
      <trkpt lat="43.61534" lon="6.95734">
        <ele>86.759147644043</ele>
        <time>2012-12-28T17:23:21Z</time>
      </trkpt>
      <trkpt lat="43.61533" lon="6.95737">
        <ele>86.638259887695</ele>
        <time>2012-12-28T17:23:25Z</time>
      </trkpt>
      <trkpt lat="43.61533" lon="6.95739">
        <ele>86.548400878906</ele>
        <time>2012-12-28T17:23:27Z</time>
      </trkpt>
      <trkpt lat="43.61532" lon="6.95752">
        <ele>86.010009765625</ele>
        <time>2012-12-28T17:23:30Z</time>
      </trkpt>
      <trkpt lat="43.6153" lon="6.95762">
        <ele>86.028434753418</ele>
        <time>2012-12-28T17:23:33Z</time>
      </trkpt>
      <trkpt lat="43.61528" lon="6.95766">
        <ele>86.005004882812</ele>
        <time>2012-12-28T17:23:34Z</time>
      </trkpt>
      <trkpt lat="43.61526" lon="6.95787">
        <ele>86.436538696289</ele>
        <time>2012-12-28T17:23:39Z</time>
      </trkpt>
      <trkpt lat="43.61524" lon="6.95804">
        <ele>86.95198059082</ele>
        <time>2012-12-28T17:23:43Z</time>
      </trkpt>
      <trkpt lat="43.6152" lon="6.95815">
        <ele>87.337959289551</ele>
        <time>2012-12-28T17:23:46Z</time>
      </trkpt>
      <trkpt lat="43.61521" lon="6.95823">
        <ele>87.619483947754</ele>
        <time>2012-12-28T17:23:48Z</time>
      </trkpt>
      <trkpt lat="43.61526" lon="6.95828">
        <ele>87.792861938477</ele>
        <time>2012-12-28T17:23:51Z</time>
      </trkpt>
      <trkpt lat="43.61528" lon="6.95841">
        <ele>88.002319335938</ele>
        <time>2012-12-28T17:23:55Z</time>
      </trkpt>
      <trkpt lat="43.61525" lon="6.9585">
        <ele>88</ele>
        <time>2012-12-28T17:23:57Z</time>
      </trkpt>
      <trkpt lat="43.61519" lon="6.95873">
        <ele>88.14151763916</ele>
        <time>2012-12-28T17:24:01Z</time>
      </trkpt>
      <trkpt lat="43.61505" lon="6.9592">
        <ele>89</ele>
        <time>2012-12-28T17:24:08Z</time>
      </trkpt>
      <trkpt lat="43.61491" lon="6.95981">
        <ele>90.540489196777</ele>
        <time>2012-12-28T17:24:17Z</time>
      </trkpt>
      <trkpt lat="43.61477" lon="6.96044">
        <ele>92.482353210449</ele>
        <time>2012-12-28T17:24:26Z</time>
      </trkpt>
      <trkpt lat="43.6146" lon="6.96094">
        <ele>93.821212768555</ele>
        <time>2012-12-28T17:24:33Z</time>
      </trkpt>
      <trkpt lat="43.61437" lon="6.96153">
        <ele>95.515617370605</ele>
        <time>2012-12-28T17:24:41Z</time>
      </trkpt>
      <trkpt lat="43.61411" lon="6.9622">
        <ele>96.924026489258</ele>
        <time>2012-12-28T17:24:50Z</time>
      </trkpt>
      <trkpt lat="43.61395" lon="6.96259">
        <ele>97</ele>
        <time>2012-12-28T17:24:56Z</time>
      </trkpt>
      <trkpt lat="43.61391" lon="6.96262">
        <ele>97</ele>
        <time>2012-12-28T17:24:57Z</time>
      </trkpt>
      <trkpt lat="43.6138" lon="6.96259">
        <ele>97</ele>
        <time>2012-12-28T17:25:00Z</time>
      </trkpt>
      <trkpt lat="43.61374" lon="6.96253">
        <ele>97</ele>
        <time>2012-12-28T17:25:02Z</time>
      </trkpt>
      <trkpt lat="43.61371" lon="6.96249">
        <ele>97</ele>
        <time>2012-12-28T17:25:03Z</time>
      </trkpt>
      <trkpt lat="43.61362" lon="6.96238">
        <ele>97</ele>
        <time>2012-12-28T17:25:06Z</time>
      </trkpt>
      <trkpt lat="43.6134" lon="6.96206">
        <ele>97.599151611328</ele>
        <time>2012-12-28T17:25:14Z</time>
      </trkpt>
      <trkpt lat="43.61319" lon="6.96172">
        <ele>99.061645507812</ele>
        <time>2012-12-28T17:25:22Z</time>
      </trkpt>
      <trkpt lat="43.613" lon="6.96145">
        <ele>100.08508300781</ele>
        <time>2012-12-28T17:25:29Z</time>
      </trkpt>
      <trkpt lat="43.61291" lon="6.96121">
        <ele>100.73797607422</ele>
        <time>2012-12-28T17:25:35Z</time>
      </trkpt>
      <trkpt lat="43.6129" lon="6.96096">
        <ele>100.41774749756</ele>
        <time>2012-12-28T17:25:41Z</time>
      </trkpt>
      <trkpt lat="43.61291" lon="6.96073">
        <ele>99.652008056641</ele>
        <time>2012-12-28T17:25:47Z</time>
      </trkpt>
      <trkpt lat="43.61289" lon="6.96048">
        <ele>99.176513671875</ele>
        <time>2012-12-28T17:25:54Z</time>
      </trkpt>
      <trkpt lat="43.61288" lon="6.96044">
        <ele>99.2314453125</ele>
        <time>2012-12-28T17:25:55Z</time>
      </trkpt>
      <trkpt lat="43.61285" lon="6.9603">
        <ele>99.506103515625</ele>
        <time>2012-12-28T17:25:59Z</time>
      </trkpt>
      <trkpt lat="43.61271" lon="6.96002">
        <ele>99.626426696777</ele>
        <time>2012-12-28T17:26:07Z</time>
      </trkpt>
      <trkpt lat="43.61246" lon="6.9598">
        <ele>100.82559967041</ele>
        <time>2012-12-28T17:26:15Z</time>
      </trkpt>
      <trkpt lat="43.61221" lon="6.95959">
        <ele>103.91100311279</ele>
        <time>2012-12-28T17:26:23Z</time>
      </trkpt>
      <trkpt lat="43.61192" lon="6.95944">
        <ele>109.36144256592</ele>
        <time>2012-12-28T17:26:30Z</time>
      </trkpt>
      <trkpt lat="43.61161" lon="6.95935">
        <ele>113.33127593994</ele>
        <time>2012-12-28T17:26:36Z</time>
      </trkpt>
      <trkpt lat="43.61128" lon="6.95925">
        <ele>115.9366607666</ele>
        <time>2012-12-28T17:26:41Z</time>
      </trkpt>
      <trkpt lat="43.6111" lon="6.95907">
        <ele>116.49786376953</ele>
        <time>2012-12-28T17:26:45Z</time>
      </trkpt>
      <trkpt lat="43.61106" lon="6.95902">
        <ele>116.72526550293</ele>
        <time>2012-12-28T17:26:46Z</time>
      </trkpt>
      <trkpt lat="43.61087" lon="6.9588">
        <ele>119.08501434326</ele>
        <time>2012-12-28T17:26:51Z</time>
      </trkpt>
      <trkpt lat="43.61083" lon="6.95877">
        <ele>119.62799072266</ele>
        <time>2012-12-28T17:26:52Z</time>
      </trkpt>
      <trkpt lat="43.61067" lon="6.95869">
        <ele>121.05621337891</ele>
        <time>2012-12-28T17:26:56Z</time>
      </trkpt>
      <trkpt lat="43.61057" lon="6.95865">
        <ele>122.02438354492</ele>
        <time>2012-12-28T17:26:59Z</time>
      </trkpt>
      <trkpt lat="43.61048" lon="6.95862">
        <ele>122.60590362549</ele>
        <time>2012-12-28T17:27:02Z</time>
      </trkpt>
      <trkpt lat="43.61032" lon="6.95856">
        <ele>123.37400817871</ele>
        <time>2012-12-28T17:27:09Z</time>
      </trkpt>
      <trkpt lat="43.61018" lon="6.95849">
        <ele>124.43590545654</ele>
        <time>2012-12-28T17:27:16Z</time>
      </trkpt>
      <trkpt lat="43.61003" lon="6.95838">
        <ele>125.13642883301</ele>
        <time>2012-12-28T17:27:22Z</time>
      </trkpt>
      <trkpt lat="43.60984" lon="6.95824">
        <ele>127.40238952637</ele>
        <time>2012-12-28T17:27:30Z</time>
      </trkpt>
      <trkpt lat="43.6097" lon="6.95812">
        <ele>129.8572845459</ele>
        <time>2012-12-28T17:27:37Z</time>
      </trkpt>
      <trkpt lat="43.6095" lon="6.95803">
        <ele>133.20542907715</ele>
        <time>2012-12-28T17:27:45Z</time>
      </trkpt>
      <trkpt lat="43.60935" lon="6.95802">
        <ele>135.07887268066</ele>
        <time>2012-12-28T17:27:51Z</time>
      </trkpt>
      <trkpt lat="43.60911" lon="6.95795">
        <ele>137.9069519043</ele>
        <time>2012-12-28T17:27:59Z</time>
      </trkpt>
      <trkpt lat="43.60889" lon="6.95778">
        <ele>140</ele>
        <time>2012-12-28T17:28:05Z</time>
      </trkpt>
      <trkpt lat="43.60859" lon="6.95753">
        <ele>140</ele>
        <time>2012-12-28T17:28:12Z</time>
      </trkpt>
      <trkpt lat="43.6082" lon="6.9572">
        <ele>140</ele>
        <time>2012-12-28T17:28:21Z</time>
      </trkpt>
      <trkpt lat="43.60788" lon="6.957">
        <ele>140</ele>
        <time>2012-12-28T17:28:29Z</time>
      </trkpt>
      <trkpt lat="43.60776" lon="6.95692">
        <ele>139.92724609375</ele>
        <time>2012-12-28T17:28:32Z</time>
      </trkpt>
      <trkpt lat="43.60772" lon="6.9569">
        <ele>139.80364990234</ele>
        <time>2012-12-28T17:28:33Z</time>
      </trkpt>
      <trkpt lat="43.60768" lon="6.95687">
        <ele>139.63885498047</ele>
        <time>2012-12-28T17:28:34Z</time>
      </trkpt>
      <trkpt lat="43.60752" lon="6.95674">
        <ele>139.07580566406</ele>
        <time>2012-12-28T17:28:38Z</time>
      </trkpt>
      <trkpt lat="43.60744" lon="6.95668">
        <ele>138.78741455078</ele>
        <time>2012-12-28T17:28:40Z</time>
      </trkpt>
      <trkpt lat="43.60728" lon="6.95655">
        <ele>138.62161254883</ele>
        <time>2012-12-28T17:28:44Z</time>
      </trkpt>
      <trkpt lat="43.60716" lon="6.95645">
        <ele>138.82466125488</ele>
        <time>2012-12-28T17:28:47Z</time>
      </trkpt>
      <trkpt lat="43.60706" lon="6.95632">
        <ele>139.13764953613</ele>
        <time>2012-12-28T17:28:50Z</time>
      </trkpt>
      <trkpt lat="43.60703" lon="6.95628">
        <ele>139.28170776367</ele>
        <time>2012-12-28T17:28:51Z</time>
      </trkpt>
      <trkpt lat="43.60696" lon="6.9561">
        <ele>139.95869445801</ele>
        <time>2012-12-28T17:28:54Z</time>
      </trkpt>
      <trkpt lat="43.6069" lon="6.95585">
        <ele>140</ele>
        <time>2012-12-28T17:28:58Z</time>
      </trkpt>
      <trkpt lat="43.60675" lon="6.95581">
        <ele>140</ele>
        <time>2012-12-28T17:29:01Z</time>
      </trkpt>
      <trkpt lat="43.60646" lon="6.95573">
        <ele>140</ele>
        <time>2012-12-28T17:29:06Z</time>
      </trkpt>
      <trkpt lat="43.60598" lon="6.95556">
        <ele>140</ele>
        <time>2012-12-28T17:29:14Z</time>
      </trkpt>
      <trkpt lat="43.60558" lon="6.95535">
        <ele>139.07202148438</ele>
        <time>2012-12-28T17:29:21Z</time>
      </trkpt>
      <trkpt lat="43.60519" lon="6.95503">
        <ele>138.96385192871</ele>
        <time>2012-12-28T17:29:27Z</time>
      </trkpt>
      <trkpt lat="43.60474" lon="6.9546">
        <ele>139.44052124023</ele>
        <time>2012-12-28T17:29:34Z</time>
      </trkpt>
      <trkpt lat="43.6044" lon="6.95428">
        <ele>140</ele>
        <time>2012-12-28T17:29:40Z</time>
      </trkpt>
      <trkpt lat="43.60389" lon="6.95386">
        <ele>140</ele>
        <time>2012-12-28T17:29:49Z</time>
      </trkpt>
      <trkpt lat="43.60348" lon="6.95352">
        <ele>140</ele>
        <time>2012-12-28T17:29:57Z</time>
      </trkpt>
      <trkpt lat="43.60299" lon="6.95309">
        <ele>140</ele>
        <time>2012-12-28T17:30:07Z</time>
      </trkpt>
      <trkpt lat="43.60282" lon="6.95288">
        <ele>140</ele>
        <time>2012-12-28T17:30:11Z</time>
      </trkpt>
      <trkpt lat="43.60275" lon="6.95277">
        <ele>140</ele>
        <time>2012-12-28T17:30:13Z</time>
      </trkpt>
      <trkpt lat="43.60247" lon="6.95227">
        <ele>140</ele>
        <time>2012-12-28T17:30:21Z</time>
      </trkpt>
      <trkpt lat="43.6022" lon="6.95176">
        <ele>140</ele>
        <time>2012-12-28T17:30:29Z</time>
      </trkpt>
      <trkpt lat="43.60188" lon="6.95116">
        <ele>140.64300537109</ele>
        <time>2012-12-28T17:30:39Z</time>
      </trkpt>
      <trkpt lat="43.60186" lon="6.9511">
        <ele>140.73030090332</ele>
        <time>2012-12-28T17:30:40Z</time>
      </trkpt>
    </trkseg>
  </trk>
</gpx>